<?xml version="1.0" encoding="UTF-8" standalone="no" ?>
<gpx xmlns="http://www.topografix.com/GPX/1/1" xmlns:xsi="http://www.w3.org/2001/XMLSchema-instance" xsi:schemaLocation="http://www.topografix.com/GPX/1/1 http://www.topografix.com/GPX/1/1/gpx.xsd" version="1.1" creator="VisuGPX - https://www.visugpx.com">
  <metadata>
    <name>Rachais</name>
    <desc><![CDATA[Ascension du Rachais en direct depuis La Tronche en passant par le Bec du Corbeau]]></desc>
  </metadata>
  <trk>
    <name><![CDATA[Rachais]]></name>
    <cmt><![CDATA[Le rachais droit dans la pente depuis La Tronche]]></cmt>
    <trkseg>
      <trkpt lat="45.18431" lon="5.7193">
        <ele>213</ele>
        <time>2014-12-21T10:35:56Z</time>
      </trkpt>
      <trkpt lat="45.18431" lon="5.7193">
        <ele>289.8</ele>
        <time>2014-12-21T10:35:57Z</time>
      </trkpt>
      <trkpt lat="45.1844" lon="5.71936">
        <ele>284.4</ele>
        <time>2014-12-21T10:36:05Z</time>
      </trkpt>
      <trkpt lat="45.18453" lon="5.7193">
        <ele>292.1</ele>
        <time>2014-12-21T10:36:17Z</time>
      </trkpt>
      <trkpt lat="45.18477" lon="5.71957">
        <ele>294.5</ele>
        <time>2014-12-21T10:36:27Z</time>
      </trkpt>
      <trkpt lat="45.1849" lon="5.71964">
        <ele>298.1</ele>
        <time>2014-12-21T10:36:32Z</time>
      </trkpt>
      <trkpt lat="45.18513" lon="5.71964">
        <ele>297.8</ele>
        <time>2014-12-21T10:36:40Z</time>
      </trkpt>
      <trkpt lat="45.18528" lon="5.71973">
        <ele>298.1</ele>
        <time>2014-12-21T10:36:47Z</time>
      </trkpt>
      <trkpt lat="45.18538" lon="5.71985">
        <ele>300</ele>
        <time>2014-12-21T10:36:52Z</time>
      </trkpt>
      <trkpt lat="45.18548" lon="5.71996">
        <ele>298.6</ele>
        <time>2014-12-21T10:36:57Z</time>
      </trkpt>
      <trkpt lat="45.18562" lon="5.72002">
        <ele>295.6</ele>
        <time>2014-12-21T10:37:02Z</time>
      </trkpt>
      <trkpt lat="45.18576" lon="5.72008">
        <ele>292.2</ele>
        <time>2014-12-21T10:37:07Z</time>
      </trkpt>
      <trkpt lat="45.186" lon="5.72025">
        <ele>292</ele>
        <time>2014-12-21T10:37:17Z</time>
      </trkpt>
      <trkpt lat="45.18615" lon="5.72035">
        <ele>294.5</ele>
        <time>2014-12-21T10:37:25Z</time>
      </trkpt>
      <trkpt lat="45.18645" lon="5.72053">
        <ele>292.8</ele>
        <time>2014-12-21T10:37:36Z</time>
      </trkpt>
      <trkpt lat="45.18664" lon="5.72074">
        <ele>292.5</ele>
        <time>2014-12-21T10:37:44Z</time>
      </trkpt>
      <trkpt lat="45.18683" lon="5.72086">
        <ele>293.2</ele>
        <time>2014-12-21T10:37:54Z</time>
      </trkpt>
      <trkpt lat="45.18706" lon="5.72098">
        <ele>291.3</ele>
        <time>2014-12-21T10:38:03Z</time>
      </trkpt>
      <trkpt lat="45.18719" lon="5.72108">
        <ele>290.9</ele>
        <time>2014-12-21T10:38:10Z</time>
      </trkpt>
      <trkpt lat="45.18747" lon="5.72127">
        <ele>291.7</ele>
        <time>2014-12-21T10:38:19Z</time>
      </trkpt>
      <trkpt lat="45.18763" lon="5.72136">
        <ele>291.2</ele>
        <time>2014-12-21T10:38:26Z</time>
      </trkpt>
      <trkpt lat="45.18778" lon="5.7215">
        <ele>289.4</ele>
        <time>2014-12-21T10:38:33Z</time>
      </trkpt>
      <trkpt lat="45.18781" lon="5.72172">
        <ele>288.8</ele>
        <time>2014-12-21T10:38:40Z</time>
      </trkpt>
      <trkpt lat="45.18778" lon="5.72204">
        <ele>286.2</ele>
        <time>2014-12-21T10:38:50Z</time>
      </trkpt>
      <trkpt lat="45.18777" lon="5.72221">
        <ele>283.6</ele>
        <time>2014-12-21T10:38:55Z</time>
      </trkpt>
      <trkpt lat="45.18775" lon="5.7225">
        <ele>282.5</ele>
        <time>2014-12-21T10:39:03Z</time>
      </trkpt>
      <trkpt lat="45.18774" lon="5.72277">
        <ele>279.3</ele>
        <time>2014-12-21T10:39:10Z</time>
      </trkpt>
      <trkpt lat="45.18765" lon="5.72313">
        <ele>276.3</ele>
        <time>2014-12-21T10:39:20Z</time>
      </trkpt>
      <trkpt lat="45.18777" lon="5.72345">
        <ele>277.1</ele>
        <time>2014-12-21T10:39:30Z</time>
      </trkpt>
      <trkpt lat="45.18791" lon="5.72379">
        <ele>281.4</ele>
        <time>2014-12-21T10:39:38Z</time>
      </trkpt>
      <trkpt lat="45.18803" lon="5.72403">
        <ele>284.4</ele>
        <time>2014-12-21T10:39:44Z</time>
      </trkpt>
      <trkpt lat="45.18813" lon="5.72428">
        <ele>285.2</ele>
        <time>2014-12-21T10:39:50Z</time>
      </trkpt>
      <trkpt lat="45.18832" lon="5.72449">
        <ele>280.3</ele>
        <time>2014-12-21T10:39:59Z</time>
      </trkpt>
      <trkpt lat="45.18849" lon="5.72465">
        <ele>279.3</ele>
        <time>2014-12-21T10:40:09Z</time>
      </trkpt>
      <trkpt lat="45.18853" lon="5.72489">
        <ele>279.6</ele>
        <time>2014-12-21T10:40:15Z</time>
      </trkpt>
      <trkpt lat="45.18858" lon="5.72512">
        <ele>279.9</ele>
        <time>2014-12-21T10:40:20Z</time>
      </trkpt>
      <trkpt lat="45.18867" lon="5.7253">
        <ele>279.8</ele>
        <time>2014-12-21T10:40:27Z</time>
      </trkpt>
      <trkpt lat="45.18889" lon="5.72567">
        <ele>280</ele>
        <time>2014-12-21T10:40:35Z</time>
      </trkpt>
      <trkpt lat="45.189" lon="5.72592">
        <ele>280.6</ele>
        <time>2014-12-21T10:40:42Z</time>
      </trkpt>
      <trkpt lat="45.18914" lon="5.72612">
        <ele>282.9</ele>
        <time>2014-12-21T10:40:50Z</time>
      </trkpt>
      <trkpt lat="45.18921" lon="5.72622">
        <ele>282.9</ele>
        <time>2014-12-21T10:40:54Z</time>
      </trkpt>
      <trkpt lat="45.18935" lon="5.72642">
        <ele>282.6</ele>
        <time>2014-12-21T10:41:01Z</time>
      </trkpt>
      <trkpt lat="45.18953" lon="5.72662">
        <ele>281.8</ele>
        <time>2014-12-21T10:41:09Z</time>
      </trkpt>
      <trkpt lat="45.18967" lon="5.72679">
        <ele>282.3</ele>
        <time>2014-12-21T10:41:15Z</time>
      </trkpt>
      <trkpt lat="45.18974" lon="5.72687">
        <ele>282.6</ele>
        <time>2014-12-21T10:41:18Z</time>
      </trkpt>
      <trkpt lat="45.18989" lon="5.72702">
        <ele>282.3</ele>
        <time>2014-12-21T10:41:24Z</time>
      </trkpt>
      <trkpt lat="45.19006" lon="5.72725">
        <ele>282.1</ele>
        <time>2014-12-21T10:41:32Z</time>
      </trkpt>
      <trkpt lat="45.19019" lon="5.7275">
        <ele>281.7</ele>
        <time>2014-12-21T10:41:41Z</time>
      </trkpt>
      <trkpt lat="45.1903" lon="5.72784">
        <ele>279.7</ele>
        <time>2014-12-21T10:41:50Z</time>
      </trkpt>
      <trkpt lat="45.19025" lon="5.72816">
        <ele>283.4</ele>
        <time>2014-12-21T10:42:00Z</time>
      </trkpt>
      <trkpt lat="45.19018" lon="5.72837">
        <ele>283.9</ele>
        <time>2014-12-21T10:42:07Z</time>
      </trkpt>
      <trkpt lat="45.19015" lon="5.72866">
        <ele>282.6</ele>
        <time>2014-12-21T10:42:17Z</time>
      </trkpt>
      <trkpt lat="45.19039" lon="5.72888">
        <ele>285.8</ele>
        <time>2014-12-21T10:42:26Z</time>
      </trkpt>
      <trkpt lat="45.19057" lon="5.72912">
        <ele>290.5</ele>
        <time>2014-12-21T10:42:34Z</time>
      </trkpt>
      <trkpt lat="45.19053" lon="5.72933">
        <ele>292.6</ele>
        <time>2014-12-21T10:42:42Z</time>
      </trkpt>
      <trkpt lat="45.19051" lon="5.72962">
        <ele>295.1</ele>
        <time>2014-12-21T10:42:53Z</time>
      </trkpt>
      <trkpt lat="45.19064" lon="5.73017">
        <ele>287.3</ele>
        <time>2014-12-21T10:43:09Z</time>
      </trkpt>
      <trkpt lat="45.19081" lon="5.73031">
        <ele>288.8</ele>
        <time>2014-12-21T10:43:19Z</time>
      </trkpt>
      <trkpt lat="45.19102" lon="5.73043">
        <ele>292</ele>
        <time>2014-12-21T10:43:29Z</time>
      </trkpt>
      <trkpt lat="45.19113" lon="5.73053">
        <ele>295.3</ele>
        <time>2014-12-21T10:43:35Z</time>
      </trkpt>
      <trkpt lat="45.19126" lon="5.73062">
        <ele>297.3</ele>
        <time>2014-12-21T10:43:41Z</time>
      </trkpt>
      <trkpt lat="45.19147" lon="5.7307">
        <ele>300.6</ele>
        <time>2014-12-21T10:43:50Z</time>
      </trkpt>
      <trkpt lat="45.19164" lon="5.73089">
        <ele>301.4</ele>
        <time>2014-12-21T10:43:58Z</time>
      </trkpt>
      <trkpt lat="45.19181" lon="5.73112">
        <ele>301.9</ele>
        <time>2014-12-21T10:44:07Z</time>
      </trkpt>
      <trkpt lat="45.19199" lon="5.73127">
        <ele>301.8</ele>
        <time>2014-12-21T10:44:14Z</time>
      </trkpt>
      <trkpt lat="45.19223" lon="5.73131">
        <ele>299.6</ele>
        <time>2014-12-21T10:44:22Z</time>
      </trkpt>
      <trkpt lat="45.19242" lon="5.73135">
        <ele>300.8</ele>
        <time>2014-12-21T10:44:30Z</time>
      </trkpt>
      <trkpt lat="45.19265" lon="5.73148">
        <ele>300.6</ele>
        <time>2014-12-21T10:44:39Z</time>
      </trkpt>
      <trkpt lat="45.19284" lon="5.7317">
        <ele>300.2</ele>
        <time>2014-12-21T10:44:48Z</time>
      </trkpt>
      <trkpt lat="45.19302" lon="5.73188">
        <ele>298.5</ele>
        <time>2014-12-21T10:44:57Z</time>
      </trkpt>
      <trkpt lat="45.19313" lon="5.73201">
        <ele>298.6</ele>
        <time>2014-12-21T10:45:03Z</time>
      </trkpt>
      <trkpt lat="45.19334" lon="5.73215">
        <ele>295.1</ele>
        <time>2014-12-21T10:45:11Z</time>
      </trkpt>
      <trkpt lat="45.19347" lon="5.73235">
        <ele>293</ele>
        <time>2014-12-21T10:45:18Z</time>
      </trkpt>
      <trkpt lat="45.19374" lon="5.73228">
        <ele>287.8</ele>
        <time>2014-12-21T10:45:28Z</time>
      </trkpt>
      <trkpt lat="45.1939" lon="5.73219">
        <ele>287.3</ele>
        <time>2014-12-21T10:45:34Z</time>
      </trkpt>
      <trkpt lat="45.19402" lon="5.7321">
        <ele>287.1</ele>
        <time>2014-12-21T10:45:38Z</time>
      </trkpt>
      <trkpt lat="45.19414" lon="5.73203">
        <ele>287.7</ele>
        <time>2014-12-21T10:45:44Z</time>
      </trkpt>
      <trkpt lat="45.19434" lon="5.73196">
        <ele>287.5</ele>
        <time>2014-12-21T10:45:52Z</time>
      </trkpt>
      <trkpt lat="45.19445" lon="5.73193">
        <ele>286.7</ele>
        <time>2014-12-21T10:45:56Z</time>
      </trkpt>
      <trkpt lat="45.19464" lon="5.73181">
        <ele>285.7</ele>
        <time>2014-12-21T10:46:04Z</time>
      </trkpt>
      <trkpt lat="45.19479" lon="5.73164">
        <ele>286.8</ele>
        <time>2014-12-21T10:46:12Z</time>
      </trkpt>
      <trkpt lat="45.19496" lon="5.73153">
        <ele>285.2</ele>
        <time>2014-12-21T10:46:20Z</time>
      </trkpt>
      <trkpt lat="45.19518" lon="5.73153">
        <ele>281.7</ele>
        <time>2014-12-21T10:46:30Z</time>
      </trkpt>
      <trkpt lat="45.19545" lon="5.73172">
        <ele>280.7</ele>
        <time>2014-12-21T10:46:41Z</time>
      </trkpt>
      <trkpt lat="45.19555" lon="5.73194">
        <ele>279.3</ele>
        <time>2014-12-21T10:46:48Z</time>
      </trkpt>
      <trkpt lat="45.19565" lon="5.73233">
        <ele>279.1</ele>
        <time>2014-12-21T10:46:58Z</time>
      </trkpt>
      <trkpt lat="45.1958" lon="5.73257">
        <ele>278.5</ele>
        <time>2014-12-21T10:47:07Z</time>
      </trkpt>
      <trkpt lat="45.19594" lon="5.73273">
        <ele>277.3</ele>
        <time>2014-12-21T10:47:15Z</time>
      </trkpt>
      <trkpt lat="45.19606" lon="5.73288">
        <ele>276.7</ele>
        <time>2014-12-21T10:47:22Z</time>
      </trkpt>
      <trkpt lat="45.19617" lon="5.73304">
        <ele>276.7</ele>
        <time>2014-12-21T10:47:29Z</time>
      </trkpt>
      <trkpt lat="45.1963" lon="5.7333">
        <ele>277.1</ele>
        <time>2014-12-21T10:47:38Z</time>
      </trkpt>
      <trkpt lat="45.19642" lon="5.73354">
        <ele>275.7</ele>
        <time>2014-12-21T10:47:46Z</time>
      </trkpt>
      <trkpt lat="45.19658" lon="5.73364">
        <ele>274.5</ele>
        <time>2014-12-21T10:47:54Z</time>
      </trkpt>
      <trkpt lat="45.19676" lon="5.7337">
        <ele>274.1</ele>
        <time>2014-12-21T10:48:03Z</time>
      </trkpt>
      <trkpt lat="45.19696" lon="5.73386">
        <ele>271.6</ele>
        <time>2014-12-21T10:48:11Z</time>
      </trkpt>
      <trkpt lat="45.19713" lon="5.73378">
        <ele>271.6</ele>
        <time>2014-12-21T10:48:18Z</time>
      </trkpt>
      <trkpt lat="45.19722" lon="5.73368">
        <ele>271.7</ele>
        <time>2014-12-21T10:48:23Z</time>
      </trkpt>
      <trkpt lat="45.19731" lon="5.73348">
        <ele>271.2</ele>
        <time>2014-12-21T10:48:30Z</time>
      </trkpt>
      <trkpt lat="45.19741" lon="5.73323">
        <ele>269.6</ele>
        <time>2014-12-21T10:48:38Z</time>
      </trkpt>
      <trkpt lat="45.19752" lon="5.73287">
        <ele>267.1</ele>
        <time>2014-12-21T10:48:49Z</time>
      </trkpt>
      <trkpt lat="45.19761" lon="5.73265">
        <ele>266.9</ele>
        <time>2014-12-21T10:48:57Z</time>
      </trkpt>
      <trkpt lat="45.19781" lon="5.73264">
        <ele>266.2</ele>
        <time>2014-12-21T10:49:05Z</time>
      </trkpt>
      <trkpt lat="45.19802" lon="5.73272">
        <ele>266.8</ele>
        <time>2014-12-21T10:49:13Z</time>
      </trkpt>
      <trkpt lat="45.19826" lon="5.73278">
        <ele>267.7</ele>
        <time>2014-12-21T10:49:22Z</time>
      </trkpt>
      <trkpt lat="45.1984" lon="5.73283">
        <ele>268.7</ele>
        <time>2014-12-21T10:49:28Z</time>
      </trkpt>
      <trkpt lat="45.19861" lon="5.73286">
        <ele>269.6</ele>
        <time>2014-12-21T10:49:37Z</time>
      </trkpt>
      <trkpt lat="45.19876" lon="5.73291">
        <ele>270.2</ele>
        <time>2014-12-21T10:49:43Z</time>
      </trkpt>
      <trkpt lat="45.19895" lon="5.73296">
        <ele>271.1</ele>
        <time>2014-12-21T10:49:52Z</time>
      </trkpt>
      <trkpt lat="45.19909" lon="5.73302">
        <ele>272.4</ele>
        <time>2014-12-21T10:49:59Z</time>
      </trkpt>
      <trkpt lat="45.19935" lon="5.73312">
        <ele>273.5</ele>
        <time>2014-12-21T10:50:09Z</time>
      </trkpt>
      <trkpt lat="45.1995" lon="5.73318">
        <ele>274.5</ele>
        <time>2014-12-21T10:50:15Z</time>
      </trkpt>
      <trkpt lat="45.19972" lon="5.73327">
        <ele>276.8</ele>
        <time>2014-12-21T10:50:24Z</time>
      </trkpt>
      <trkpt lat="45.19988" lon="5.73337">
        <ele>276.5</ele>
        <time>2014-12-21T10:50:30Z</time>
      </trkpt>
      <trkpt lat="45.20007" lon="5.73348">
        <ele>277.1</ele>
        <time>2014-12-21T10:50:38Z</time>
      </trkpt>
      <trkpt lat="45.20022" lon="5.73352">
        <ele>277.3</ele>
        <time>2014-12-21T10:50:45Z</time>
      </trkpt>
      <trkpt lat="45.20044" lon="5.73358">
        <ele>277.9</ele>
        <time>2014-12-21T10:50:55Z</time>
      </trkpt>
      <trkpt lat="45.20059" lon="5.73361">
        <ele>278.3</ele>
        <time>2014-12-21T10:51:02Z</time>
      </trkpt>
      <trkpt lat="45.20084" lon="5.73373">
        <ele>278.9</ele>
        <time>2014-12-21T10:51:12Z</time>
      </trkpt>
      <trkpt lat="45.20106" lon="5.73382">
        <ele>280.1</ele>
        <time>2014-12-21T10:51:19Z</time>
      </trkpt>
      <trkpt lat="45.20123" lon="5.73392">
        <ele>279.2</ele>
        <time>2014-12-21T10:51:25Z</time>
      </trkpt>
      <trkpt lat="45.20145" lon="5.734">
        <ele>279.2</ele>
        <time>2014-12-21T10:51:33Z</time>
      </trkpt>
      <trkpt lat="45.20165" lon="5.73404">
        <ele>278.1</ele>
        <time>2014-12-21T10:51:41Z</time>
      </trkpt>
      <trkpt lat="45.20184" lon="5.73407">
        <ele>276.8</ele>
        <time>2014-12-21T10:51:50Z</time>
      </trkpt>
      <trkpt lat="45.20199" lon="5.73417">
        <ele>278.1</ele>
        <time>2014-12-21T10:51:59Z</time>
      </trkpt>
      <trkpt lat="45.20216" lon="5.73433">
        <ele>278.1</ele>
        <time>2014-12-21T10:52:05Z</time>
      </trkpt>
      <trkpt lat="45.20229" lon="5.7345">
        <ele>278.5</ele>
        <time>2014-12-21T10:52:11Z</time>
      </trkpt>
      <trkpt lat="45.20242" lon="5.73464">
        <ele>279.2</ele>
        <time>2014-12-21T10:52:19Z</time>
      </trkpt>
      <trkpt lat="45.20254" lon="5.73505">
        <ele>284.3</ele>
        <time>2014-12-21T10:52:29Z</time>
      </trkpt>
      <trkpt lat="45.20272" lon="5.73534">
        <ele>283.6</ele>
        <time>2014-12-21T10:52:38Z</time>
      </trkpt>
      <trkpt lat="45.20278" lon="5.73549">
        <ele>283.1</ele>
        <time>2014-12-21T10:52:46Z</time>
      </trkpt>
      <trkpt lat="45.20296" lon="5.73569">
        <ele>283.6</ele>
        <time>2014-12-21T10:52:57Z</time>
      </trkpt>
      <trkpt lat="45.20311" lon="5.73591">
        <ele>285.8</ele>
        <time>2014-12-21T10:53:05Z</time>
      </trkpt>
      <trkpt lat="45.20325" lon="5.7361">
        <ele>288.3</ele>
        <time>2014-12-21T10:53:13Z</time>
      </trkpt>
      <trkpt lat="45.20336" lon="5.7363">
        <ele>291.9</ele>
        <time>2014-12-21T10:53:21Z</time>
      </trkpt>
      <trkpt lat="45.20349" lon="5.73645">
        <ele>291.3</ele>
        <time>2014-12-21T10:53:29Z</time>
      </trkpt>
      <trkpt lat="45.20362" lon="5.73661">
        <ele>291.3</ele>
        <time>2014-12-21T10:53:36Z</time>
      </trkpt>
      <trkpt lat="45.20382" lon="5.73686">
        <ele>290.2</ele>
        <time>2014-12-21T10:53:47Z</time>
      </trkpt>
      <trkpt lat="45.20396" lon="5.73705">
        <ele>289.5</ele>
        <time>2014-12-21T10:53:54Z</time>
      </trkpt>
      <trkpt lat="45.2041" lon="5.73722">
        <ele>289.1</ele>
        <time>2014-12-21T10:54:02Z</time>
      </trkpt>
      <trkpt lat="45.20426" lon="5.73749">
        <ele>290.7</ele>
        <time>2014-12-21T10:54:12Z</time>
      </trkpt>
      <trkpt lat="45.20439" lon="5.73761">
        <ele>290</ele>
        <time>2014-12-21T10:54:20Z</time>
      </trkpt>
      <trkpt lat="45.20455" lon="5.73786">
        <ele>294.1</ele>
        <time>2014-12-21T10:54:31Z</time>
      </trkpt>
      <trkpt lat="45.20469" lon="5.73802">
        <ele>296.2</ele>
        <time>2014-12-21T10:54:39Z</time>
      </trkpt>
      <trkpt lat="45.20487" lon="5.73819">
        <ele>294</ele>
        <time>2014-12-21T10:54:47Z</time>
      </trkpt>
      <trkpt lat="45.20499" lon="5.73833">
        <ele>294.6</ele>
        <time>2014-12-21T10:54:55Z</time>
      </trkpt>
      <trkpt lat="45.20519" lon="5.73847">
        <ele>296.3</ele>
        <time>2014-12-21T10:55:07Z</time>
      </trkpt>
      <trkpt lat="45.2053" lon="5.73854">
        <ele>298.4</ele>
        <time>2014-12-21T10:55:20Z</time>
      </trkpt>
      <trkpt lat="45.20545" lon="5.73872">
        <ele>301.5</ele>
        <time>2014-12-21T10:55:34Z</time>
      </trkpt>
      <trkpt lat="45.20576" lon="5.73866">
        <ele>301.3</ele>
        <time>2014-12-21T10:55:52Z</time>
      </trkpt>
      <trkpt lat="45.20598" lon="5.73858">
        <ele>300.9</ele>
        <time>2014-12-21T10:56:06Z</time>
      </trkpt>
      <trkpt lat="45.20614" lon="5.73852">
        <ele>301.4</ele>
        <time>2014-12-21T10:56:17Z</time>
      </trkpt>
      <trkpt lat="45.20636" lon="5.73844">
        <ele>303.6</ele>
        <time>2014-12-21T10:56:32Z</time>
      </trkpt>
      <trkpt lat="45.20646" lon="5.7384">
        <ele>304.3</ele>
        <time>2014-12-21T10:56:40Z</time>
      </trkpt>
      <trkpt lat="45.20658" lon="5.73835">
        <ele>306</ele>
        <time>2014-12-21T10:56:50Z</time>
      </trkpt>
      <trkpt lat="45.2068" lon="5.73826">
        <ele>309.5</ele>
        <time>2014-12-21T10:57:10Z</time>
      </trkpt>
      <trkpt lat="45.20698" lon="5.73814">
        <ele>312.7</ele>
        <time>2014-12-21T10:57:27Z</time>
      </trkpt>
      <trkpt lat="45.20711" lon="5.73802">
        <ele>315.8</ele>
        <time>2014-12-21T10:57:42Z</time>
      </trkpt>
      <trkpt lat="45.20727" lon="5.73788">
        <ele>320.7</ele>
        <time>2014-12-21T10:58:01Z</time>
      </trkpt>
      <trkpt lat="45.20738" lon="5.73781">
        <ele>323</ele>
        <time>2014-12-21T10:58:15Z</time>
      </trkpt>
      <trkpt lat="45.2075" lon="5.7376">
        <ele>327.8</ele>
        <time>2014-12-21T10:58:32Z</time>
      </trkpt>
      <trkpt lat="45.20767" lon="5.73748">
        <ele>332.1</ele>
        <time>2014-12-21T10:58:47Z</time>
      </trkpt>
      <trkpt lat="45.20779" lon="5.73741">
        <ele>337.1</ele>
        <time>2014-12-21T10:58:57Z</time>
      </trkpt>
      <trkpt lat="45.20779" lon="5.73739">
        <ele>339.4</ele>
        <time>2014-12-21T10:59:06Z</time>
      </trkpt>
      <trkpt lat="45.20803" lon="5.73726">
        <ele>347.8</ele>
        <time>2014-12-21T10:59:34Z</time>
      </trkpt>
      <trkpt lat="45.20816" lon="5.73727">
        <ele>352.2</ele>
        <time>2014-12-21T10:59:44Z</time>
      </trkpt>
      <trkpt lat="45.20834" lon="5.73738">
        <ele>357.5</ele>
        <time>2014-12-21T11:00:01Z</time>
      </trkpt>
      <trkpt lat="45.20848" lon="5.7373">
        <ele>359.5</ele>
        <time>2014-12-21T11:00:15Z</time>
      </trkpt>
      <trkpt lat="45.20853" lon="5.73731">
        <ele>360.8</ele>
        <time>2014-12-21T11:00:19Z</time>
      </trkpt>
      <trkpt lat="45.20858" lon="5.73723">
        <ele>364.5</ele>
        <time>2014-12-21T11:00:35Z</time>
      </trkpt>
      <trkpt lat="45.20867" lon="5.73732">
        <ele>367.1</ele>
        <time>2014-12-21T11:00:46Z</time>
      </trkpt>
      <trkpt lat="45.20883" lon="5.73746">
        <ele>370.8</ele>
        <time>2014-12-21T11:00:57Z</time>
      </trkpt>
      <trkpt lat="45.20888" lon="5.73754">
        <ele>372</ele>
        <time>2014-12-21T11:01:03Z</time>
      </trkpt>
      <trkpt lat="45.20891" lon="5.73753">
        <ele>372.2</ele>
        <time>2014-12-21T11:01:10Z</time>
      </trkpt>
      <trkpt lat="45.2089" lon="5.73734">
        <ele>375.1</ele>
        <time>2014-12-21T11:01:28Z</time>
      </trkpt>
      <trkpt lat="45.20899" lon="5.73726">
        <ele>377</ele>
        <time>2014-12-21T11:01:36Z</time>
      </trkpt>
      <trkpt lat="45.20913" lon="5.73713">
        <ele>380.4</ele>
        <time>2014-12-21T11:01:52Z</time>
      </trkpt>
      <trkpt lat="45.20921" lon="5.73711">
        <ele>383.3</ele>
        <time>2014-12-21T11:02:00Z</time>
      </trkpt>
      <trkpt lat="45.2093" lon="5.73708">
        <ele>386.8</ele>
        <time>2014-12-21T11:02:15Z</time>
      </trkpt>
      <trkpt lat="45.20957" lon="5.737">
        <ele>395.6</ele>
        <time>2014-12-21T11:02:50Z</time>
      </trkpt>
      <trkpt lat="45.20963" lon="5.73698">
        <ele>397.1</ele>
        <time>2014-12-21T11:02:56Z</time>
      </trkpt>
      <trkpt lat="45.20966" lon="5.73693">
        <ele>398.7</ele>
        <time>2014-12-21T11:03:05Z</time>
      </trkpt>
      <trkpt lat="45.20984" lon="5.73659">
        <ele>403.6</ele>
        <time>2014-12-21T11:03:54Z</time>
      </trkpt>
      <trkpt lat="45.20988" lon="5.73653">
        <ele>405.7</ele>
        <time>2014-12-21T11:04:05Z</time>
      </trkpt>
      <trkpt lat="45.20991" lon="5.73645">
        <ele>408.3</ele>
        <time>2014-12-21T11:04:16Z</time>
      </trkpt>
      <trkpt lat="45.20993" lon="5.73637">
        <ele>409.2</ele>
        <time>2014-12-21T11:04:21Z</time>
      </trkpt>
      <trkpt lat="45.20996" lon="5.73625">
        <ele>411.2</ele>
        <time>2014-12-21T11:04:33Z</time>
      </trkpt>
      <trkpt lat="45.20996" lon="5.73625">
        <ele>411.2</ele>
        <time>2014-12-21T11:04:40Z</time>
      </trkpt>
      <trkpt lat="45.21" lon="5.73605">
        <ele>415.7</ele>
        <time>2014-12-21T11:04:53Z</time>
      </trkpt>
      <trkpt lat="45.21005" lon="5.73586">
        <ele>421.1</ele>
        <time>2014-12-21T11:05:12Z</time>
      </trkpt>
      <trkpt lat="45.2101" lon="5.73547">
        <ele>436</ele>
        <time>2014-12-21T11:05:57Z</time>
      </trkpt>
      <trkpt lat="45.21019" lon="5.73512">
        <ele>447.8</ele>
        <time>2014-12-21T11:06:44Z</time>
      </trkpt>
      <trkpt lat="45.21023" lon="5.73497">
        <ele>451.3</ele>
        <time>2014-12-21T11:07:01Z</time>
      </trkpt>
      <trkpt lat="45.21021" lon="5.73459">
        <ele>464</ele>
        <time>2014-12-21T11:07:58Z</time>
      </trkpt>
      <trkpt lat="45.20997" lon="5.73439">
        <ele>476</ele>
        <time>2014-12-21T11:08:39Z</time>
      </trkpt>
      <trkpt lat="45.20984" lon="5.7343">
        <ele>480.1</ele>
        <time>2014-12-21T11:08:59Z</time>
      </trkpt>
      <trkpt lat="45.20963" lon="5.73398">
        <ele>494</ele>
        <time>2014-12-21T11:09:41Z</time>
      </trkpt>
      <trkpt lat="45.20938" lon="5.73375">
        <ele>502.9</ele>
        <time>2014-12-21T11:10:16Z</time>
      </trkpt>
      <trkpt lat="45.20926" lon="5.73365">
        <ele>506.8</ele>
        <time>2014-12-21T11:10:29Z</time>
      </trkpt>
      <trkpt lat="45.20922" lon="5.73356">
        <ele>509.6</ele>
        <time>2014-12-21T11:10:41Z</time>
      </trkpt>
      <trkpt lat="45.20915" lon="5.7335">
        <ele>512.2</ele>
        <time>2014-12-21T11:10:57Z</time>
      </trkpt>
      <trkpt lat="45.20889" lon="5.73332">
        <ele>518</ele>
        <time>2014-12-21T11:11:39Z</time>
      </trkpt>
      <trkpt lat="45.20877" lon="5.73328">
        <ele>521.4</ele>
        <time>2014-12-21T11:11:56Z</time>
      </trkpt>
      <trkpt lat="45.20871" lon="5.73323">
        <ele>524.5</ele>
        <time>2014-12-21T11:12:06Z</time>
      </trkpt>
      <trkpt lat="45.20865" lon="5.73316">
        <ele>529.1</ele>
        <time>2014-12-21T11:12:17Z</time>
      </trkpt>
      <trkpt lat="45.20894" lon="5.73308">
        <ele>541.2</ele>
        <time>2014-12-21T11:12:54Z</time>
      </trkpt>
      <trkpt lat="45.20906" lon="5.73306">
        <ele>546.2</ele>
        <time>2014-12-21T11:13:06Z</time>
      </trkpt>
      <trkpt lat="45.20927" lon="5.73307">
        <ele>549.9</ele>
        <time>2014-12-21T11:13:23Z</time>
      </trkpt>
      <trkpt lat="45.2094" lon="5.73311">
        <ele>553.8</ele>
        <time>2014-12-21T11:13:32Z</time>
      </trkpt>
      <trkpt lat="45.20953" lon="5.73309">
        <ele>555.1</ele>
        <time>2014-12-21T11:13:41Z</time>
      </trkpt>
      <trkpt lat="45.20963" lon="5.73302">
        <ele>555.5</ele>
        <time>2014-12-21T11:13:49Z</time>
      </trkpt>
      <trkpt lat="45.20982" lon="5.73301">
        <ele>558.4</ele>
        <time>2014-12-21T11:14:03Z</time>
      </trkpt>
      <trkpt lat="45.20986" lon="5.73301">
        <ele>558.8</ele>
        <time>2014-12-21T11:14:05Z</time>
      </trkpt>
      <trkpt lat="45.20978" lon="5.73289">
        <ele>561.3</ele>
        <time>2014-12-21T11:14:22Z</time>
      </trkpt>
      <trkpt lat="45.20963" lon="5.73282">
        <ele>563.8</ele>
        <time>2014-12-21T11:14:41Z</time>
      </trkpt>
      <trkpt lat="45.20943" lon="5.73272">
        <ele>565.4</ele>
        <time>2014-12-21T11:14:54Z</time>
      </trkpt>
      <trkpt lat="45.2093" lon="5.73262">
        <ele>567</ele>
        <time>2014-12-21T11:15:05Z</time>
      </trkpt>
      <trkpt lat="45.20918" lon="5.73257">
        <ele>570</ele>
        <time>2014-12-21T11:15:16Z</time>
      </trkpt>
      <trkpt lat="45.20918" lon="5.73257">
        <ele>570</ele>
        <time>2014-12-21T11:15:24Z</time>
      </trkpt>
      <trkpt lat="45.20918" lon="5.73257">
        <ele>570</ele>
        <time>2014-12-21T11:15:25Z</time>
      </trkpt>
      <trkpt lat="45.2093" lon="5.73259">
        <ele>573.1</ele>
        <time>2014-12-21T11:15:34Z</time>
      </trkpt>
      <trkpt lat="45.20951" lon="5.73258">
        <ele>577.8</ele>
        <time>2014-12-21T11:15:54Z</time>
      </trkpt>
      <trkpt lat="45.2097" lon="5.73253">
        <ele>581.6</ele>
        <time>2014-12-21T11:16:10Z</time>
      </trkpt>
      <trkpt lat="45.20983" lon="5.73248">
        <ele>584.1</ele>
        <time>2014-12-21T11:16:20Z</time>
      </trkpt>
      <trkpt lat="45.20983" lon="5.73248">
        <ele>584.1</ele>
        <time>2014-12-21T11:16:28Z</time>
      </trkpt>
      <trkpt lat="45.20983" lon="5.73248">
        <ele>584.1</ele>
        <time>2014-12-21T11:16:29Z</time>
      </trkpt>
      <trkpt lat="45.20972" lon="5.73234">
        <ele>587.1</ele>
        <time>2014-12-21T11:16:46Z</time>
      </trkpt>
      <trkpt lat="45.2096" lon="5.7323">
        <ele>588.6</ele>
        <time>2014-12-21T11:16:58Z</time>
      </trkpt>
      <trkpt lat="45.2095" lon="5.73221">
        <ele>589.9</ele>
        <time>2014-12-21T11:17:11Z</time>
      </trkpt>
      <trkpt lat="45.20946" lon="5.73218">
        <ele>590.8</ele>
        <time>2014-12-21T11:17:13Z</time>
      </trkpt>
      <trkpt lat="45.20944" lon="5.7322">
        <ele>592.3</ele>
        <time>2014-12-21T11:17:22Z</time>
      </trkpt>
      <trkpt lat="45.20972" lon="5.7322">
        <ele>601.4</ele>
        <time>2014-12-21T11:17:57Z</time>
      </trkpt>
      <trkpt lat="45.20987" lon="5.73215">
        <ele>603.6</ele>
        <time>2014-12-21T11:18:06Z</time>
      </trkpt>
      <trkpt lat="45.20983" lon="5.7321">
        <ele>605.4</ele>
        <time>2014-12-21T11:18:15Z</time>
      </trkpt>
      <trkpt lat="45.21" lon="5.73184">
        <ele>612.1</ele>
        <time>2014-12-21T11:18:43Z</time>
      </trkpt>
      <trkpt lat="45.21014" lon="5.73169">
        <ele>615</ele>
        <time>2014-12-21T11:19:00Z</time>
      </trkpt>
      <trkpt lat="45.21026" lon="5.73174">
        <ele>619.1</ele>
        <time>2014-12-21T11:19:14Z</time>
      </trkpt>
      <trkpt lat="45.2104" lon="5.73187">
        <ele>622.9</ele>
        <time>2014-12-21T11:19:24Z</time>
      </trkpt>
      <trkpt lat="45.21044" lon="5.73189">
        <ele>623.4</ele>
        <time>2014-12-21T11:19:28Z</time>
      </trkpt>
      <trkpt lat="45.21053" lon="5.73184">
        <ele>625.7</ele>
        <time>2014-12-21T11:19:39Z</time>
      </trkpt>
      <trkpt lat="45.21075" lon="5.732">
        <ele>631.2</ele>
        <time>2014-12-21T11:19:57Z</time>
      </trkpt>
      <trkpt lat="45.21081" lon="5.73204">
        <ele>630.1</ele>
        <time>2014-12-21T11:20:03Z</time>
      </trkpt>
      <trkpt lat="45.21082" lon="5.73198">
        <ele>631.9</ele>
        <time>2014-12-21T11:20:11Z</time>
      </trkpt>
      <trkpt lat="45.21065" lon="5.7316">
        <ele>640.1</ele>
        <time>2014-12-21T11:20:50Z</time>
      </trkpt>
      <trkpt lat="45.21047" lon="5.73145">
        <ele>642.4</ele>
        <time>2014-12-21T11:21:04Z</time>
      </trkpt>
      <trkpt lat="45.21036" lon="5.73136">
        <ele>645</ele>
        <time>2014-12-21T11:21:17Z</time>
      </trkpt>
      <trkpt lat="45.21009" lon="5.73131">
        <ele>649.9</ele>
        <time>2014-12-21T11:21:54Z</time>
      </trkpt>
      <trkpt lat="45.21005" lon="5.73131">
        <ele>650.3</ele>
        <time>2014-12-21T11:21:58Z</time>
      </trkpt>
      <trkpt lat="45.21009" lon="5.73131">
        <ele>649.9</ele>
        <time>2014-12-21T11:22:07Z</time>
      </trkpt>
      <trkpt lat="45.21017" lon="5.73108">
        <ele>662.4</ele>
        <time>2014-12-21T11:22:29Z</time>
      </trkpt>
      <trkpt lat="45.21032" lon="5.7311">
        <ele>667.7</ele>
        <time>2014-12-21T11:22:43Z</time>
      </trkpt>
      <trkpt lat="45.21052" lon="5.73116">
        <ele>672.4</ele>
        <time>2014-12-21T11:22:56Z</time>
      </trkpt>
      <trkpt lat="45.21067" lon="5.73114">
        <ele>675.3</ele>
        <time>2014-12-21T11:23:07Z</time>
      </trkpt>
      <trkpt lat="45.21085" lon="5.73119">
        <ele>680.7</ele>
        <time>2014-12-21T11:23:23Z</time>
      </trkpt>
      <trkpt lat="45.21101" lon="5.73136">
        <ele>684.4</ele>
        <time>2014-12-21T11:23:36Z</time>
      </trkpt>
      <trkpt lat="45.21112" lon="5.73144">
        <ele>687.3</ele>
        <time>2014-12-21T11:23:47Z</time>
      </trkpt>
      <trkpt lat="45.21138" lon="5.73123">
        <ele>699.2</ele>
        <time>2014-12-21T11:25:08Z</time>
      </trkpt>
      <trkpt lat="45.21152" lon="5.73127">
        <ele>702.9</ele>
        <time>2014-12-21T11:25:24Z</time>
      </trkpt>
      <trkpt lat="45.21166" lon="5.7314">
        <ele>707</ele>
        <time>2014-12-21T11:25:36Z</time>
      </trkpt>
      <trkpt lat="45.21176" lon="5.73153">
        <ele>710.1</ele>
        <time>2014-12-21T11:25:46Z</time>
      </trkpt>
      <trkpt lat="45.21189" lon="5.73163">
        <ele>712.2</ele>
        <time>2014-12-21T11:25:58Z</time>
      </trkpt>
      <trkpt lat="45.21199" lon="5.73179">
        <ele>715.6</ele>
        <time>2014-12-21T11:26:11Z</time>
      </trkpt>
      <trkpt lat="45.2121" lon="5.73189">
        <ele>719.5</ele>
        <time>2014-12-21T11:26:24Z</time>
      </trkpt>
      <trkpt lat="45.21224" lon="5.73207">
        <ele>724</ele>
        <time>2014-12-21T11:26:43Z</time>
      </trkpt>
      <trkpt lat="45.21238" lon="5.7322">
        <ele>727</ele>
        <time>2014-12-21T11:27:01Z</time>
      </trkpt>
      <trkpt lat="45.21255" lon="5.73235">
        <ele>730.3</ele>
        <time>2014-12-21T11:27:23Z</time>
      </trkpt>
      <trkpt lat="45.21275" lon="5.73259">
        <ele>734.9</ele>
        <time>2014-12-21T11:27:41Z</time>
      </trkpt>
      <trkpt lat="45.21287" lon="5.73271">
        <ele>738.9</ele>
        <time>2014-12-21T11:27:52Z</time>
      </trkpt>
      <trkpt lat="45.21292" lon="5.73271">
        <ele>740.4</ele>
        <time>2014-12-21T11:27:59Z</time>
      </trkpt>
      <trkpt lat="45.21299" lon="5.73281">
        <ele>743.1</ele>
        <time>2014-12-21T11:28:12Z</time>
      </trkpt>
      <trkpt lat="45.21316" lon="5.73283">
        <ele>745</ele>
        <time>2014-12-21T11:28:27Z</time>
      </trkpt>
      <trkpt lat="45.21329" lon="5.73287">
        <ele>749.1</ele>
        <time>2014-12-21T11:28:42Z</time>
      </trkpt>
      <trkpt lat="45.21355" lon="5.73316">
        <ele>755.1</ele>
        <time>2014-12-21T11:29:02Z</time>
      </trkpt>
      <trkpt lat="45.21355" lon="5.73316">
        <ele>755.1</ele>
        <time>2014-12-21T11:29:09Z</time>
      </trkpt>
      <trkpt lat="45.21355" lon="5.73316">
        <ele>755.1</ele>
        <time>2014-12-21T11:29:10Z</time>
      </trkpt>
      <trkpt lat="45.21367" lon="5.73328">
        <ele>759.9</ele>
        <time>2014-12-21T11:29:20Z</time>
      </trkpt>
      <trkpt lat="45.2138" lon="5.73348">
        <ele>764.4</ele>
        <time>2014-12-21T11:29:36Z</time>
      </trkpt>
      <trkpt lat="45.2139" lon="5.73361">
        <ele>766.8</ele>
        <time>2014-12-21T11:29:46Z</time>
      </trkpt>
      <trkpt lat="45.21402" lon="5.73373">
        <ele>769.3</ele>
        <time>2014-12-21T11:29:57Z</time>
      </trkpt>
      <trkpt lat="45.21406" lon="5.73382">
        <ele>771.1</ele>
        <time>2014-12-21T11:30:08Z</time>
      </trkpt>
      <trkpt lat="45.21411" lon="5.73396">
        <ele>772.8</ele>
        <time>2014-12-21T11:30:18Z</time>
      </trkpt>
      <trkpt lat="45.2142" lon="5.73413">
        <ele>775</ele>
        <time>2014-12-21T11:30:30Z</time>
      </trkpt>
      <trkpt lat="45.21433" lon="5.7344">
        <ele>778.7</ele>
        <time>2014-12-21T11:30:48Z</time>
      </trkpt>
      <trkpt lat="45.21446" lon="5.7346">
        <ele>781.1</ele>
        <time>2014-12-21T11:31:01Z</time>
      </trkpt>
      <trkpt lat="45.21454" lon="5.73476">
        <ele>783.2</ele>
        <time>2014-12-21T11:31:10Z</time>
      </trkpt>
      <trkpt lat="45.21459" lon="5.73482">
        <ele>784.6</ele>
        <time>2014-12-21T11:31:25Z</time>
      </trkpt>
      <trkpt lat="45.21459" lon="5.73482">
        <ele>784.6</ele>
        <time>2014-12-21T11:31:32Z</time>
      </trkpt>
      <trkpt lat="45.21459" lon="5.73482">
        <ele>784.6</ele>
        <time>2014-12-21T11:31:33Z</time>
      </trkpt>
      <trkpt lat="45.21467" lon="5.73497">
        <ele>788.8</ele>
        <time>2014-12-21T11:31:44Z</time>
      </trkpt>
      <trkpt lat="45.21477" lon="5.73533">
        <ele>793.7</ele>
        <time>2014-12-21T11:32:02Z</time>
      </trkpt>
      <trkpt lat="45.21488" lon="5.73547">
        <ele>796.4</ele>
        <time>2014-12-21T11:32:15Z</time>
      </trkpt>
      <trkpt lat="45.21501" lon="5.73561">
        <ele>800.8</ele>
        <time>2014-12-21T11:32:29Z</time>
      </trkpt>
      <trkpt lat="45.21509" lon="5.73581">
        <ele>804.4</ele>
        <time>2014-12-21T11:32:44Z</time>
      </trkpt>
      <trkpt lat="45.21517" lon="5.73594">
        <ele>807.4</ele>
        <time>2014-12-21T11:32:57Z</time>
      </trkpt>
      <trkpt lat="45.21515" lon="5.7359">
        <ele>811.1</ele>
        <time>2014-12-21T11:33:06Z</time>
      </trkpt>
      <trkpt lat="45.21528" lon="5.73596">
        <ele>817.1</ele>
        <time>2014-12-21T11:33:40Z</time>
      </trkpt>
      <trkpt lat="45.21539" lon="5.73612">
        <ele>818.4</ele>
        <time>2014-12-21T11:33:52Z</time>
      </trkpt>
      <trkpt lat="45.21541" lon="5.73606">
        <ele>821</ele>
        <time>2014-12-21T11:34:01Z</time>
      </trkpt>
      <trkpt lat="45.21544" lon="5.73584">
        <ele>827.7</ele>
        <time>2014-12-21T11:34:42Z</time>
      </trkpt>
      <trkpt lat="45.21541" lon="5.73564">
        <ele>830.5</ele>
        <time>2014-12-21T11:35:01Z</time>
      </trkpt>
      <trkpt lat="45.21562" lon="5.73537">
        <ele>849.8</ele>
        <time>2014-12-21T11:36:32Z</time>
      </trkpt>
      <trkpt lat="45.21561" lon="5.73508">
        <ele>853.4</ele>
        <time>2014-12-21T11:36:49Z</time>
      </trkpt>
      <trkpt lat="45.21548" lon="5.73482">
        <ele>857.2</ele>
        <time>2014-12-21T11:37:07Z</time>
      </trkpt>
      <trkpt lat="45.21548" lon="5.73482">
        <ele>857.2</ele>
        <time>2014-12-21T11:37:15Z</time>
      </trkpt>
      <trkpt lat="45.21548" lon="5.73482">
        <ele>857.2</ele>
        <time>2014-12-21T11:37:16Z</time>
      </trkpt>
      <trkpt lat="45.21566" lon="5.73483">
        <ele>869.9</ele>
        <time>2014-12-21T11:38:04Z</time>
      </trkpt>
      <trkpt lat="45.21576" lon="5.73498">
        <ele>873.7</ele>
        <time>2014-12-21T11:38:17Z</time>
      </trkpt>
      <trkpt lat="45.21587" lon="5.73521">
        <ele>880.1</ele>
        <time>2014-12-21T11:38:27Z</time>
      </trkpt>
      <trkpt lat="45.21594" lon="5.73539">
        <ele>881.6</ele>
        <time>2014-12-21T11:38:38Z</time>
      </trkpt>
      <trkpt lat="45.21607" lon="5.73562">
        <ele>885.4</ele>
        <time>2014-12-21T11:38:54Z</time>
      </trkpt>
      <trkpt lat="45.21622" lon="5.73576">
        <ele>888.8</ele>
        <time>2014-12-21T11:39:07Z</time>
      </trkpt>
      <trkpt lat="45.21622" lon="5.73576">
        <ele>888.8</ele>
        <time>2014-12-21T11:39:15Z</time>
      </trkpt>
      <trkpt lat="45.21622" lon="5.73576">
        <ele>888.8</ele>
        <time>2014-12-21T11:39:16Z</time>
      </trkpt>
      <trkpt lat="45.21622" lon="5.73548">
        <ele>895.7</ele>
        <time>2014-12-21T11:40:00Z</time>
      </trkpt>
      <trkpt lat="45.21617" lon="5.73537">
        <ele>896.6</ele>
        <time>2014-12-21T11:40:06Z</time>
      </trkpt>
      <trkpt lat="45.21622" lon="5.73542">
        <ele>897.9</ele>
        <time>2014-12-21T11:40:12Z</time>
      </trkpt>
      <trkpt lat="45.21638" lon="5.73557">
        <ele>902.3</ele>
        <time>2014-12-21T11:40:25Z</time>
      </trkpt>
      <trkpt lat="45.2165" lon="5.73565">
        <ele>904.9</ele>
        <time>2014-12-21T11:40:36Z</time>
      </trkpt>
      <trkpt lat="45.21658" lon="5.73562">
        <ele>907.5</ele>
        <time>2014-12-21T11:40:51Z</time>
      </trkpt>
      <trkpt lat="45.21685" lon="5.73558">
        <ele>913.3</ele>
        <time>2014-12-21T11:41:27Z</time>
      </trkpt>
      <trkpt lat="45.21701" lon="5.73563">
        <ele>916.9</ele>
        <time>2014-12-21T11:41:42Z</time>
      </trkpt>
      <trkpt lat="45.21701" lon="5.73563">
        <ele>916.9</ele>
        <time>2014-12-21T11:41:50Z</time>
      </trkpt>
      <trkpt lat="45.21701" lon="5.73563">
        <ele>916.9</ele>
        <time>2014-12-21T11:41:51Z</time>
      </trkpt>
      <trkpt lat="45.21698" lon="5.73546">
        <ele>920.8</ele>
        <time>2014-12-21T11:42:02Z</time>
      </trkpt>
      <trkpt lat="45.21688" lon="5.73534">
        <ele>923.9</ele>
        <time>2014-12-21T11:42:18Z</time>
      </trkpt>
      <trkpt lat="45.2168" lon="5.73529">
        <ele>925.1</ele>
        <time>2014-12-21T11:42:26Z</time>
      </trkpt>
      <trkpt lat="45.2168" lon="5.73526">
        <ele>927.5</ele>
        <time>2014-12-21T11:42:35Z</time>
      </trkpt>
      <trkpt lat="45.2171" lon="5.73525">
        <ele>937.6</ele>
        <time>2014-12-21T11:43:20Z</time>
      </trkpt>
      <trkpt lat="45.21717" lon="5.73535">
        <ele>940.7</ele>
        <time>2014-12-21T11:43:31Z</time>
      </trkpt>
      <trkpt lat="45.2174" lon="5.73537">
        <ele>942</ele>
        <time>2014-12-21T11:43:46Z</time>
      </trkpt>
      <trkpt lat="45.2175" lon="5.73541">
        <ele>942.9</ele>
        <time>2014-12-21T11:43:53Z</time>
      </trkpt>
      <trkpt lat="45.21771" lon="5.73558">
        <ele>944.9</ele>
        <time>2014-12-21T11:44:05Z</time>
      </trkpt>
      <trkpt lat="45.21784" lon="5.73574">
        <ele>946.8</ele>
        <time>2014-12-21T11:44:13Z</time>
      </trkpt>
      <trkpt lat="45.21801" lon="5.73591">
        <ele>948.4</ele>
        <time>2014-12-21T11:44:23Z</time>
      </trkpt>
      <trkpt lat="45.21819" lon="5.73608">
        <ele>950.7</ele>
        <time>2014-12-21T11:44:36Z</time>
      </trkpt>
      <trkpt lat="45.21827" lon="5.73616">
        <ele>947.4</ele>
        <time>2014-12-21T11:44:43Z</time>
      </trkpt>
      <trkpt lat="45.21828" lon="5.73595">
        <ele>946.7</ele>
        <time>2014-12-21T11:45:00Z</time>
      </trkpt>
      <trkpt lat="45.21819" lon="5.73575">
        <ele>949.2</ele>
        <time>2014-12-21T11:45:16Z</time>
      </trkpt>
      <trkpt lat="45.21807" lon="5.73559">
        <ele>952.1</ele>
        <time>2014-12-21T11:45:26Z</time>
      </trkpt>
      <trkpt lat="45.21796" lon="5.73541">
        <ele>954.6</ele>
        <time>2014-12-21T11:45:37Z</time>
      </trkpt>
      <trkpt lat="45.21784" lon="5.73526">
        <ele>956.7</ele>
        <time>2014-12-21T11:45:51Z</time>
      </trkpt>
      <trkpt lat="45.21763" lon="5.73517">
        <ele>958.1</ele>
        <time>2014-12-21T11:46:06Z</time>
      </trkpt>
      <trkpt lat="45.2175" lon="5.73511">
        <ele>957.9</ele>
        <time>2014-12-21T11:46:13Z</time>
      </trkpt>
      <trkpt lat="45.21732" lon="5.73496">
        <ele>958</ele>
        <time>2014-12-21T11:46:22Z</time>
      </trkpt>
      <trkpt lat="45.2171" lon="5.73494">
        <ele>959.6</ele>
        <time>2014-12-21T11:46:32Z</time>
      </trkpt>
      <trkpt lat="45.21687" lon="5.73478">
        <ele>960.9</ele>
        <time>2014-12-21T11:46:44Z</time>
      </trkpt>
      <trkpt lat="45.21679" lon="5.73453">
        <ele>962.5</ele>
        <time>2014-12-21T11:46:57Z</time>
      </trkpt>
      <trkpt lat="45.21679" lon="5.7343">
        <ele>964.1</ele>
        <time>2014-12-21T11:47:11Z</time>
      </trkpt>
      <trkpt lat="45.21678" lon="5.7342">
        <ele>964.8</ele>
        <time>2014-12-21T11:47:28Z</time>
      </trkpt>
      <trkpt lat="45.21673" lon="5.73406">
        <ele>966.4</ele>
        <time>2014-12-21T11:47:40Z</time>
      </trkpt>
      <trkpt lat="45.21667" lon="5.73386">
        <ele>966.2</ele>
        <time>2014-12-21T11:47:57Z</time>
      </trkpt>
      <trkpt lat="45.21668" lon="5.73376">
        <ele>965.9</ele>
        <time>2014-12-21T11:48:07Z</time>
      </trkpt>
      <trkpt lat="45.21669" lon="5.73368">
        <ele>966.4</ele>
        <time>2014-12-21T11:48:20Z</time>
      </trkpt>
      <trkpt lat="45.21654" lon="5.73336">
        <ele>972</ele>
        <time>2014-12-21T11:48:38Z</time>
      </trkpt>
      <trkpt lat="45.21651" lon="5.73316">
        <ele>974.7</ele>
        <time>2014-12-21T11:48:55Z</time>
      </trkpt>
      <trkpt lat="45.21641" lon="5.7328">
        <ele>985.1</ele>
        <time>2014-12-21T11:49:24Z</time>
      </trkpt>
      <trkpt lat="45.21628" lon="5.73259">
        <ele>988.4</ele>
        <time>2014-12-21T11:49:36Z</time>
      </trkpt>
      <trkpt lat="45.2162" lon="5.73242">
        <ele>993</ele>
        <time>2014-12-21T11:49:48Z</time>
      </trkpt>
      <trkpt lat="45.21611" lon="5.73227">
        <ele>995.4</ele>
        <time>2014-12-21T11:50:02Z</time>
      </trkpt>
      <trkpt lat="45.21598" lon="5.732">
        <ele>1000.7</ele>
        <time>2014-12-21T11:50:27Z</time>
      </trkpt>
      <trkpt lat="45.21584" lon="5.73186">
        <ele>1001.8</ele>
        <time>2014-12-21T11:50:41Z</time>
      </trkpt>
      <trkpt lat="45.21576" lon="5.73174">
        <ele>1004.6</ele>
        <time>2014-12-21T11:50:53Z</time>
      </trkpt>
      <trkpt lat="45.21583" lon="5.73134">
        <ele>1015.6</ele>
        <time>2014-12-21T11:52:00Z</time>
      </trkpt>
      <trkpt lat="45.21608" lon="5.73119">
        <ele>1025.7</ele>
        <time>2014-12-21T11:52:48Z</time>
      </trkpt>
      <trkpt lat="45.21624" lon="5.73128">
        <ele>1028.6</ele>
        <time>2014-12-21T11:53:02Z</time>
      </trkpt>
      <trkpt lat="45.21633" lon="5.73134">
        <ele>1032.5</ele>
        <time>2014-12-21T11:53:19Z</time>
      </trkpt>
      <trkpt lat="45.21659" lon="5.73138">
        <ele>1037.1</ele>
        <time>2014-12-21T11:54:01Z</time>
      </trkpt>
      <trkpt lat="45.21668" lon="5.73137">
        <ele>1039</ele>
        <time>2014-12-21T11:54:13Z</time>
      </trkpt>
      <trkpt lat="45.21675" lon="5.73148">
        <ele>1043.5</ele>
        <time>2014-12-21T11:54:27Z</time>
      </trkpt>
      <trkpt lat="45.21685" lon="5.73165">
        <ele>1048.7</ele>
        <time>2014-12-21T11:54:46Z</time>
      </trkpt>
      <trkpt lat="45.21688" lon="5.73167">
        <ele>1051.6</ele>
        <time>2014-12-21T11:54:53Z</time>
      </trkpt>
      <trkpt lat="45.21693" lon="5.73175">
        <ele>1053.1</ele>
        <time>2014-12-21T11:55:04Z</time>
      </trkpt>
      <trkpt lat="45.21704" lon="5.73195">
        <ele>1055.5</ele>
        <time>2014-12-21T11:55:22Z</time>
      </trkpt>
      <trkpt lat="45.21717" lon="5.7321">
        <ele>1057.6</ele>
        <time>2014-12-21T11:55:37Z</time>
      </trkpt>
      <trkpt lat="45.21733" lon="5.73206">
        <ele>1061.8</ele>
        <time>2014-12-21T11:55:58Z</time>
      </trkpt>
      <trkpt lat="45.21755" lon="5.7321">
        <ele>1066.3</ele>
        <time>2014-12-21T11:56:24Z</time>
      </trkpt>
      <trkpt lat="45.21766" lon="5.73221">
        <ele>1067.9</ele>
        <time>2014-12-21T11:56:40Z</time>
      </trkpt>
      <trkpt lat="45.21775" lon="5.73236">
        <ele>1070.3</ele>
        <time>2014-12-21T11:56:54Z</time>
      </trkpt>
      <trkpt lat="45.21782" lon="5.73252">
        <ele>1073.5</ele>
        <time>2014-12-21T11:57:11Z</time>
      </trkpt>
      <trkpt lat="45.21785" lon="5.73275">
        <ele>1076</ele>
        <time>2014-12-21T11:57:33Z</time>
      </trkpt>
      <trkpt lat="45.21797" lon="5.7329">
        <ele>1077.7</ele>
        <time>2014-12-21T11:57:42Z</time>
      </trkpt>
      <trkpt lat="45.21808" lon="5.73301">
        <ele>1079.8</ele>
        <time>2014-12-21T11:57:53Z</time>
      </trkpt>
      <trkpt lat="45.2182" lon="5.73313">
        <ele>1082.3</ele>
        <time>2014-12-21T11:58:09Z</time>
      </trkpt>
      <trkpt lat="45.21836" lon="5.73331">
        <ele>1084.6</ele>
        <time>2014-12-21T11:58:25Z</time>
      </trkpt>
      <trkpt lat="45.21836" lon="5.73331">
        <ele>1044.3</ele>
        <time>2014-12-21T11:58:41Z</time>
      </trkpt>
      <trkpt lat="45.21836" lon="5.73331">
        <ele>1044.3</ele>
        <time>2014-12-21T12:07:42Z</time>
      </trkpt>
      <trkpt lat="45.21846" lon="5.73344">
        <ele>1089</ele>
        <time>2014-12-21T12:07:42Z</time>
      </trkpt>
      <trkpt lat="45.21825" lon="5.73322">
        <ele>1090.9</ele>
        <time>2014-12-21T12:08:17Z</time>
      </trkpt>
      <trkpt lat="45.21807" lon="5.73304">
        <ele>1089.6</ele>
        <time>2014-12-21T12:08:33Z</time>
      </trkpt>
      <trkpt lat="45.21787" lon="5.73287">
        <ele>1087.8</ele>
        <time>2014-12-21T12:08:48Z</time>
      </trkpt>
      <trkpt lat="45.21784" lon="5.73282">
        <ele>1087.5</ele>
        <time>2014-12-21T12:08:51Z</time>
      </trkpt>
      <trkpt lat="45.21784" lon="5.73269">
        <ele>1085.7</ele>
        <time>2014-12-21T12:09:04Z</time>
      </trkpt>
      <trkpt lat="45.21774" lon="5.73245">
        <ele>1083.8</ele>
        <time>2014-12-21T12:09:22Z</time>
      </trkpt>
      <trkpt lat="45.21763" lon="5.73225">
        <ele>1081.7</ele>
        <time>2014-12-21T12:09:41Z</time>
      </trkpt>
      <trkpt lat="45.21752" lon="5.73215">
        <ele>1080.6</ele>
        <time>2014-12-21T12:09:53Z</time>
      </trkpt>
      <trkpt lat="45.21739" lon="5.73217">
        <ele>1079.4</ele>
        <time>2014-12-21T12:10:04Z</time>
      </trkpt>
      <trkpt lat="45.21715" lon="5.73207">
        <ele>1075.3</ele>
        <time>2014-12-21T12:10:21Z</time>
      </trkpt>
      <trkpt lat="45.217" lon="5.73189">
        <ele>1073.5</ele>
        <time>2014-12-21T12:10:34Z</time>
      </trkpt>
      <trkpt lat="45.21691" lon="5.73179">
        <ele>1071.9</ele>
        <time>2014-12-21T12:10:41Z</time>
      </trkpt>
      <trkpt lat="45.2168" lon="5.73168">
        <ele>1070</ele>
        <time>2014-12-21T12:10:50Z</time>
      </trkpt>
      <trkpt lat="45.21669" lon="5.73154">
        <ele>1067.7</ele>
        <time>2014-12-21T12:11:01Z</time>
      </trkpt>
      <trkpt lat="45.21651" lon="5.73143">
        <ele>1064.1</ele>
        <time>2014-12-21T12:11:20Z</time>
      </trkpt>
      <trkpt lat="45.21621" lon="5.73134">
        <ele>1060.8</ele>
        <time>2014-12-21T12:11:34Z</time>
      </trkpt>
      <trkpt lat="45.21602" lon="5.73124">
        <ele>1056.8</ele>
        <time>2014-12-21T12:11:43Z</time>
      </trkpt>
      <trkpt lat="45.2159" lon="5.73136">
        <ele>1052.3</ele>
        <time>2014-12-21T12:11:55Z</time>
      </trkpt>
      <trkpt lat="45.21575" lon="5.73154">
        <ele>1044.7</ele>
        <time>2014-12-21T12:12:13Z</time>
      </trkpt>
      <trkpt lat="45.21573" lon="5.73182">
        <ele>1037.2</ele>
        <time>2014-12-21T12:12:30Z</time>
      </trkpt>
      <trkpt lat="45.21583" lon="5.73196">
        <ele>1034.7</ele>
        <time>2014-12-21T12:12:36Z</time>
      </trkpt>
      <trkpt lat="45.21595" lon="5.73212">
        <ele>1031.7</ele>
        <time>2014-12-21T12:12:44Z</time>
      </trkpt>
      <trkpt lat="45.21607" lon="5.73232">
        <ele>1025.7</ele>
        <time>2014-12-21T12:12:56Z</time>
      </trkpt>
      <trkpt lat="45.21618" lon="5.73256">
        <ele>1021.7</ele>
        <time>2014-12-21T12:13:05Z</time>
      </trkpt>
      <trkpt lat="45.2163" lon="5.73279">
        <ele>1018</ele>
        <time>2014-12-21T12:13:13Z</time>
      </trkpt>
      <trkpt lat="45.21641" lon="5.73306">
        <ele>1015</ele>
        <time>2014-12-21T12:13:23Z</time>
      </trkpt>
      <trkpt lat="45.21644" lon="5.7332">
        <ele>1014.3</ele>
        <time>2014-12-21T12:13:29Z</time>
      </trkpt>
      <trkpt lat="45.21648" lon="5.73342">
        <ele>1010.8</ele>
        <time>2014-12-21T12:13:39Z</time>
      </trkpt>
      <trkpt lat="45.21655" lon="5.73372">
        <ele>1008.8</ele>
        <time>2014-12-21T12:13:51Z</time>
      </trkpt>
      <trkpt lat="45.21659" lon="5.7339">
        <ele>1007.6</ele>
        <time>2014-12-21T12:13:58Z</time>
      </trkpt>
      <trkpt lat="45.21668" lon="5.73436">
        <ele>1001.4</ele>
        <time>2014-12-21T12:14:08Z</time>
      </trkpt>
      <trkpt lat="45.2167" lon="5.73466">
        <ele>996.8</ele>
        <time>2014-12-21T12:14:16Z</time>
      </trkpt>
      <trkpt lat="45.21671" lon="5.73474">
        <ele>993.4</ele>
        <time>2014-12-21T12:14:19Z</time>
      </trkpt>
      <trkpt lat="45.2167" lon="5.73466">
        <ele>996.8</ele>
        <time>2014-12-21T12:14:27Z</time>
      </trkpt>
      <trkpt lat="45.21661" lon="5.73449">
        <ele>981.2</ele>
        <time>2014-12-21T12:14:33Z</time>
      </trkpt>
      <trkpt lat="45.21657" lon="5.73435">
        <ele>980.1</ele>
        <time>2014-12-21T12:14:38Z</time>
      </trkpt>
      <trkpt lat="45.21644" lon="5.7341">
        <ele>976.3</ele>
        <time>2014-12-21T12:14:48Z</time>
      </trkpt>
      <trkpt lat="45.21632" lon="5.73401">
        <ele>974.9</ele>
        <time>2014-12-21T12:14:54Z</time>
      </trkpt>
      <trkpt lat="45.21611" lon="5.73388">
        <ele>972.6</ele>
        <time>2014-12-21T12:15:04Z</time>
      </trkpt>
      <trkpt lat="45.21601" lon="5.73376">
        <ele>970.7</ele>
        <time>2014-12-21T12:15:09Z</time>
      </trkpt>
      <trkpt lat="45.2159" lon="5.73365">
        <ele>969.6</ele>
        <time>2014-12-21T12:15:14Z</time>
      </trkpt>
      <trkpt lat="45.21574" lon="5.73358">
        <ele>968.1</ele>
        <time>2014-12-21T12:15:20Z</time>
      </trkpt>
      <trkpt lat="45.2156" lon="5.73351">
        <ele>967.2</ele>
        <time>2014-12-21T12:15:26Z</time>
      </trkpt>
      <trkpt lat="45.21546" lon="5.73349">
        <ele>966.3</ele>
        <time>2014-12-21T12:15:32Z</time>
      </trkpt>
      <trkpt lat="45.21532" lon="5.73345">
        <ele>965.1</ele>
        <time>2014-12-21T12:15:38Z</time>
      </trkpt>
      <trkpt lat="45.21518" lon="5.73334">
        <ele>962.4</ele>
        <time>2014-12-21T12:15:45Z</time>
      </trkpt>
      <trkpt lat="45.2151" lon="5.73291">
        <ele>955.3</ele>
        <time>2014-12-21T12:15:54Z</time>
      </trkpt>
      <trkpt lat="45.21505" lon="5.73269">
        <ele>950</ele>
        <time>2014-12-21T12:16:00Z</time>
      </trkpt>
      <trkpt lat="45.2149" lon="5.73248">
        <ele>947.3</ele>
        <time>2014-12-21T12:16:10Z</time>
      </trkpt>
      <trkpt lat="45.21478" lon="5.7323">
        <ele>944.4</ele>
        <time>2014-12-21T12:16:18Z</time>
      </trkpt>
      <trkpt lat="45.21476" lon="5.73208">
        <ele>943.4</ele>
        <time>2014-12-21T12:16:24Z</time>
      </trkpt>
      <trkpt lat="45.21465" lon="5.73189">
        <ele>941.3</ele>
        <time>2014-12-21T12:16:33Z</time>
      </trkpt>
      <trkpt lat="45.21455" lon="5.73179">
        <ele>941.1</ele>
        <time>2014-12-21T12:16:39Z</time>
      </trkpt>
      <trkpt lat="45.21437" lon="5.7317">
        <ele>939.8</ele>
        <time>2014-12-21T12:16:49Z</time>
      </trkpt>
      <trkpt lat="45.21416" lon="5.73146">
        <ele>936.7</ele>
        <time>2014-12-21T12:16:58Z</time>
      </trkpt>
      <trkpt lat="45.214" lon="5.73125">
        <ele>933.1</ele>
        <time>2014-12-21T12:17:06Z</time>
      </trkpt>
      <trkpt lat="45.21387" lon="5.73106">
        <ele>931</ele>
        <time>2014-12-21T12:17:13Z</time>
      </trkpt>
      <trkpt lat="45.21373" lon="5.73088">
        <ele>928</ele>
        <time>2014-12-21T12:17:22Z</time>
      </trkpt>
      <trkpt lat="45.21358" lon="5.73067">
        <ele>922</ele>
        <time>2014-12-21T12:17:36Z</time>
      </trkpt>
      <trkpt lat="45.21343" lon="5.73056">
        <ele>917.9</ele>
        <time>2014-12-21T12:17:47Z</time>
      </trkpt>
      <trkpt lat="45.21325" lon="5.73034">
        <ele>915.5</ele>
        <time>2014-12-21T12:17:56Z</time>
      </trkpt>
      <trkpt lat="45.21308" lon="5.73011">
        <ele>913.4</ele>
        <time>2014-12-21T12:18:04Z</time>
      </trkpt>
      <trkpt lat="45.21293" lon="5.7299">
        <ele>910.2</ele>
        <time>2014-12-21T12:18:12Z</time>
      </trkpt>
      <trkpt lat="45.21281" lon="5.72972">
        <ele>905.3</ele>
        <time>2014-12-21T12:18:19Z</time>
      </trkpt>
      <trkpt lat="45.21263" lon="5.72955">
        <ele>896.7</ele>
        <time>2014-12-21T12:18:30Z</time>
      </trkpt>
      <trkpt lat="45.21249" lon="5.72946">
        <ele>893.2</ele>
        <time>2014-12-21T12:18:37Z</time>
      </trkpt>
      <trkpt lat="45.21229" lon="5.72932">
        <ele>889</ele>
        <time>2014-12-21T12:18:47Z</time>
      </trkpt>
      <trkpt lat="45.21224" lon="5.72928">
        <ele>887.9</ele>
        <time>2014-12-21T12:18:50Z</time>
      </trkpt>
      <trkpt lat="45.21221" lon="5.72943">
        <ele>881</ele>
        <time>2014-12-21T12:19:03Z</time>
      </trkpt>
      <trkpt lat="45.21202" lon="5.72935">
        <ele>877.9</ele>
        <time>2014-12-21T12:19:16Z</time>
      </trkpt>
      <trkpt lat="45.21192" lon="5.72925">
        <ele>876.4</ele>
        <time>2014-12-21T12:19:21Z</time>
      </trkpt>
      <trkpt lat="45.21172" lon="5.72921">
        <ele>874.4</ele>
        <time>2014-12-21T12:19:28Z</time>
      </trkpt>
      <trkpt lat="45.21154" lon="5.72915">
        <ele>869.6</ele>
        <time>2014-12-21T12:19:38Z</time>
      </trkpt>
      <trkpt lat="45.21133" lon="5.72905">
        <ele>863.8</ele>
        <time>2014-12-21T12:19:52Z</time>
      </trkpt>
      <trkpt lat="45.21113" lon="5.72891">
        <ele>862.8</ele>
        <time>2014-12-21T12:20:01Z</time>
      </trkpt>
      <trkpt lat="45.21091" lon="5.72874">
        <ele>860.5</ele>
        <time>2014-12-21T12:20:11Z</time>
      </trkpt>
      <trkpt lat="45.21078" lon="5.72837">
        <ele>859.1</ele>
        <time>2014-12-21T12:20:20Z</time>
      </trkpt>
      <trkpt lat="45.21069" lon="5.72808">
        <ele>857.8</ele>
        <time>2014-12-21T12:20:27Z</time>
      </trkpt>
      <trkpt lat="45.21062" lon="5.72782">
        <ele>852.3</ele>
        <time>2014-12-21T12:20:34Z</time>
      </trkpt>
      <trkpt lat="45.21053" lon="5.72763">
        <ele>846.3</ele>
        <time>2014-12-21T12:20:42Z</time>
      </trkpt>
      <trkpt lat="45.21033" lon="5.72747">
        <ele>840.7</ele>
        <time>2014-12-21T12:20:55Z</time>
      </trkpt>
      <trkpt lat="45.21016" lon="5.72748">
        <ele>835.6</ele>
        <time>2014-12-21T12:21:08Z</time>
      </trkpt>
      <trkpt lat="45.20999" lon="5.72753">
        <ele>831.3</ele>
        <time>2014-12-21T12:21:19Z</time>
      </trkpt>
      <trkpt lat="45.20986" lon="5.72749">
        <ele>826.6</ele>
        <time>2014-12-21T12:21:31Z</time>
      </trkpt>
      <trkpt lat="45.20977" lon="5.72746">
        <ele>822.8</ele>
        <time>2014-12-21T12:21:46Z</time>
      </trkpt>
      <trkpt lat="45.20954" lon="5.7272">
        <ele>818</ele>
        <time>2014-12-21T12:22:03Z</time>
      </trkpt>
      <trkpt lat="45.20942" lon="5.72714">
        <ele>816.9</ele>
        <time>2014-12-21T12:22:08Z</time>
      </trkpt>
      <trkpt lat="45.20929" lon="5.72705">
        <ele>812.9</ele>
        <time>2014-12-21T12:22:17Z</time>
      </trkpt>
      <trkpt lat="45.20908" lon="5.72694">
        <ele>809</ele>
        <time>2014-12-21T12:22:27Z</time>
      </trkpt>
      <trkpt lat="45.20877" lon="5.7269">
        <ele>804.9</ele>
        <time>2014-12-21T12:22:37Z</time>
      </trkpt>
      <trkpt lat="45.20861" lon="5.72688">
        <ele>801.1</ele>
        <time>2014-12-21T12:22:45Z</time>
      </trkpt>
      <trkpt lat="45.2085" lon="5.72676">
        <ele>797.3</ele>
        <time>2014-12-21T12:22:53Z</time>
      </trkpt>
      <trkpt lat="45.20841" lon="5.7267">
        <ele>795.2</ele>
        <time>2014-12-21T12:22:57Z</time>
      </trkpt>
      <trkpt lat="45.20823" lon="5.72667">
        <ele>790.1</ele>
        <time>2014-12-21T12:23:07Z</time>
      </trkpt>
      <trkpt lat="45.20808" lon="5.72649">
        <ele>783.9</ele>
        <time>2014-12-21T12:23:20Z</time>
      </trkpt>
      <trkpt lat="45.20793" lon="5.72631">
        <ele>774.4</ele>
        <time>2014-12-21T12:23:33Z</time>
      </trkpt>
      <trkpt lat="45.20777" lon="5.72611">
        <ele>761.5</ele>
        <time>2014-12-21T12:23:50Z</time>
      </trkpt>
      <trkpt lat="45.20764" lon="5.72613">
        <ele>753.8</ele>
        <time>2014-12-21T12:24:03Z</time>
      </trkpt>
      <trkpt lat="45.20747" lon="5.72605">
        <ele>747.9</ele>
        <time>2014-12-21T12:24:15Z</time>
      </trkpt>
      <trkpt lat="45.20721" lon="5.72592">
        <ele>740.3</ele>
        <time>2014-12-21T12:24:30Z</time>
      </trkpt>
      <trkpt lat="45.20702" lon="5.72583">
        <ele>735.7</ele>
        <time>2014-12-21T12:24:41Z</time>
      </trkpt>
      <trkpt lat="45.20684" lon="5.72591">
        <ele>733.1</ele>
        <time>2014-12-21T12:24:48Z</time>
      </trkpt>
      <trkpt lat="45.20667" lon="5.72601">
        <ele>729.2</ele>
        <time>2014-12-21T12:24:56Z</time>
      </trkpt>
      <trkpt lat="45.2064" lon="5.72597">
        <ele>724.6</ele>
        <time>2014-12-21T12:25:06Z</time>
      </trkpt>
      <trkpt lat="45.20619" lon="5.72592">
        <ele>720.9</ele>
        <time>2014-12-21T12:25:13Z</time>
      </trkpt>
      <trkpt lat="45.20596" lon="5.72584">
        <ele>716.2</ele>
        <time>2014-12-21T12:25:21Z</time>
      </trkpt>
      <trkpt lat="45.20574" lon="5.72571">
        <ele>712.7</ele>
        <time>2014-12-21T12:25:30Z</time>
      </trkpt>
      <trkpt lat="45.20554" lon="5.72567">
        <ele>707.4</ele>
        <time>2014-12-21T12:25:40Z</time>
      </trkpt>
      <trkpt lat="45.20543" lon="5.7257">
        <ele>704.9</ele>
        <time>2014-12-21T12:25:45Z</time>
      </trkpt>
      <trkpt lat="45.20537" lon="5.72571">
        <ele>703.6</ele>
        <time>2014-12-21T12:25:48Z</time>
      </trkpt>
      <trkpt lat="45.20513" lon="5.72571">
        <ele>700</ele>
        <time>2014-12-21T12:25:58Z</time>
      </trkpt>
      <trkpt lat="45.20488" lon="5.72558">
        <ele>698.1</ele>
        <time>2014-12-21T12:26:06Z</time>
      </trkpt>
      <trkpt lat="45.20472" lon="5.72545">
        <ele>695.9</ele>
        <time>2014-12-21T12:26:13Z</time>
      </trkpt>
      <trkpt lat="45.20457" lon="5.72531">
        <ele>691.6</ele>
        <time>2014-12-21T12:26:21Z</time>
      </trkpt>
      <trkpt lat="45.20457" lon="5.72531">
        <ele>691.6</ele>
        <time>2014-12-21T12:26:29Z</time>
      </trkpt>
      <trkpt lat="45.20457" lon="5.72531">
        <ele>691.6</ele>
        <time>2014-12-21T12:26:30Z</time>
      </trkpt>
      <trkpt lat="45.20467" lon="5.72566">
        <ele>683.2</ele>
        <time>2014-12-21T12:26:39Z</time>
      </trkpt>
      <trkpt lat="45.20478" lon="5.72593">
        <ele>680.7</ele>
        <time>2014-12-21T12:26:48Z</time>
      </trkpt>
      <trkpt lat="45.20492" lon="5.72614">
        <ele>677.8</ele>
        <time>2014-12-21T12:26:56Z</time>
      </trkpt>
      <trkpt lat="45.20514" lon="5.72632">
        <ele>674.8</ele>
        <time>2014-12-21T12:27:06Z</time>
      </trkpt>
      <trkpt lat="45.20527" lon="5.72653">
        <ele>672.9</ele>
        <time>2014-12-21T12:27:13Z</time>
      </trkpt>
      <trkpt lat="45.20547" lon="5.72679">
        <ele>669.2</ele>
        <time>2014-12-21T12:27:22Z</time>
      </trkpt>
      <trkpt lat="45.20564" lon="5.72698">
        <ele>666.2</ele>
        <time>2014-12-21T12:27:30Z</time>
      </trkpt>
      <trkpt lat="45.2057" lon="5.72704">
        <ele>665.3</ele>
        <time>2014-12-21T12:27:33Z</time>
      </trkpt>
      <trkpt lat="45.20566" lon="5.72707">
        <ele>664.3</ele>
        <time>2014-12-21T12:27:39Z</time>
      </trkpt>
      <trkpt lat="45.20546" lon="5.72705">
        <ele>662.1</ele>
        <time>2014-12-21T12:27:49Z</time>
      </trkpt>
      <trkpt lat="45.20527" lon="5.72698">
        <ele>661.2</ele>
        <time>2014-12-21T12:27:59Z</time>
      </trkpt>
      <trkpt lat="45.20515" lon="5.72698">
        <ele>660.6</ele>
        <time>2014-12-21T12:28:05Z</time>
      </trkpt>
      <trkpt lat="45.20487" lon="5.7269">
        <ele>659.4</ele>
        <time>2014-12-21T12:28:16Z</time>
      </trkpt>
      <trkpt lat="45.20472" lon="5.72685">
        <ele>659.3</ele>
        <time>2014-12-21T12:28:21Z</time>
      </trkpt>
      <trkpt lat="45.20449" lon="5.72676">
        <ele>658</ele>
        <time>2014-12-21T12:28:29Z</time>
      </trkpt>
      <trkpt lat="45.20431" lon="5.72653">
        <ele>655.8</ele>
        <time>2014-12-21T12:28:37Z</time>
      </trkpt>
      <trkpt lat="45.2043" lon="5.72644">
        <ele>652.6</ele>
        <time>2014-12-21T12:28:39Z</time>
      </trkpt>
      <trkpt lat="45.20431" lon="5.72653">
        <ele>655.8</ele>
        <time>2014-12-21T12:28:46Z</time>
      </trkpt>
      <trkpt lat="45.20441" lon="5.72663">
        <ele>643.1</ele>
        <time>2014-12-21T12:28:53Z</time>
      </trkpt>
      <trkpt lat="45.20455" lon="5.72673">
        <ele>639.3</ele>
        <time>2014-12-21T12:29:02Z</time>
      </trkpt>
      <trkpt lat="45.20465" lon="5.72685">
        <ele>637.5</ele>
        <time>2014-12-21T12:29:08Z</time>
      </trkpt>
      <trkpt lat="45.20481" lon="5.72703">
        <ele>635.3</ele>
        <time>2014-12-21T12:29:16Z</time>
      </trkpt>
      <trkpt lat="45.205" lon="5.72725">
        <ele>633.3</ele>
        <time>2014-12-21T12:29:24Z</time>
      </trkpt>
      <trkpt lat="45.20511" lon="5.7274">
        <ele>631.8</ele>
        <time>2014-12-21T12:29:29Z</time>
      </trkpt>
      <trkpt lat="45.20508" lon="5.72742">
        <ele>628.7</ele>
        <time>2014-12-21T12:29:36Z</time>
      </trkpt>
      <trkpt lat="45.20489" lon="5.72734">
        <ele>624.2</ele>
        <time>2014-12-21T12:29:47Z</time>
      </trkpt>
      <trkpt lat="45.20475" lon="5.7273">
        <ele>623.6</ele>
        <time>2014-12-21T12:29:55Z</time>
      </trkpt>
      <trkpt lat="45.2045" lon="5.72727">
        <ele>622.6</ele>
        <time>2014-12-21T12:30:05Z</time>
      </trkpt>
      <trkpt lat="45.20427" lon="5.72722">
        <ele>621.4</ele>
        <time>2014-12-21T12:30:13Z</time>
      </trkpt>
      <trkpt lat="45.20406" lon="5.72707">
        <ele>619.3</ele>
        <time>2014-12-21T12:30:21Z</time>
      </trkpt>
      <trkpt lat="45.2039" lon="5.72688">
        <ele>618.1</ele>
        <time>2014-12-21T12:30:28Z</time>
      </trkpt>
      <trkpt lat="45.20376" lon="5.72666">
        <ele>615.8</ele>
        <time>2014-12-21T12:30:35Z</time>
      </trkpt>
      <trkpt lat="45.20357" lon="5.72652">
        <ele>612.5</ele>
        <time>2014-12-21T12:30:44Z</time>
      </trkpt>
      <trkpt lat="45.20346" lon="5.72644">
        <ele>611</ele>
        <time>2014-12-21T12:30:49Z</time>
      </trkpt>
      <trkpt lat="45.20323" lon="5.72635">
        <ele>608.5</ele>
        <time>2014-12-21T12:30:58Z</time>
      </trkpt>
      <trkpt lat="45.20298" lon="5.72632">
        <ele>606.7</ele>
        <time>2014-12-21T12:31:06Z</time>
      </trkpt>
      <trkpt lat="45.2028" lon="5.72627">
        <ele>603.9</ele>
        <time>2014-12-21T12:31:16Z</time>
      </trkpt>
      <trkpt lat="45.20255" lon="5.7263">
        <ele>602.1</ele>
        <time>2014-12-21T12:31:23Z</time>
      </trkpt>
      <trkpt lat="45.20237" lon="5.72625">
        <ele>600</ele>
        <time>2014-12-21T12:31:28Z</time>
      </trkpt>
      <trkpt lat="45.20216" lon="5.72618">
        <ele>596.7</ele>
        <time>2014-12-21T12:31:35Z</time>
      </trkpt>
      <trkpt lat="45.20199" lon="5.72605">
        <ele>594</ele>
        <time>2014-12-21T12:31:41Z</time>
      </trkpt>
      <trkpt lat="45.20172" lon="5.72591">
        <ele>589.1</ele>
        <time>2014-12-21T12:31:50Z</time>
      </trkpt>
      <trkpt lat="45.20154" lon="5.72581">
        <ele>585.6</ele>
        <time>2014-12-21T12:31:57Z</time>
      </trkpt>
      <trkpt lat="45.2013" lon="5.72572">
        <ele>581.9</ele>
        <time>2014-12-21T12:32:06Z</time>
      </trkpt>
      <trkpt lat="45.20111" lon="5.72557">
        <ele>573.4</ele>
        <time>2014-12-21T12:32:14Z</time>
      </trkpt>
      <trkpt lat="45.20084" lon="5.72545">
        <ele>565.7</ele>
        <time>2014-12-21T12:32:23Z</time>
      </trkpt>
      <trkpt lat="45.20073" lon="5.72525">
        <ele>558.9</ele>
        <time>2014-12-21T12:32:31Z</time>
      </trkpt>
      <trkpt lat="45.20076" lon="5.72505">
        <ele>556.8</ele>
        <time>2014-12-21T12:32:37Z</time>
      </trkpt>
      <trkpt lat="45.20076" lon="5.72476">
        <ele>554.9</ele>
        <time>2014-12-21T12:32:45Z</time>
      </trkpt>
      <trkpt lat="45.20067" lon="5.72446">
        <ele>552.7</ele>
        <time>2014-12-21T12:32:54Z</time>
      </trkpt>
      <trkpt lat="45.20045" lon="5.72437">
        <ele>549.2</ele>
        <time>2014-12-21T12:33:04Z</time>
      </trkpt>
      <trkpt lat="45.20021" lon="5.72432">
        <ele>546.2</ele>
        <time>2014-12-21T12:33:11Z</time>
      </trkpt>
      <trkpt lat="45.19994" lon="5.72429">
        <ele>542.5</ele>
        <time>2014-12-21T12:33:19Z</time>
      </trkpt>
      <trkpt lat="45.19971" lon="5.72427">
        <ele>539.2</ele>
        <time>2014-12-21T12:33:26Z</time>
      </trkpt>
      <trkpt lat="45.19944" lon="5.72425">
        <ele>536.5</ele>
        <time>2014-12-21T12:33:35Z</time>
      </trkpt>
      <trkpt lat="45.19927" lon="5.7243">
        <ele>535.8</ele>
        <time>2014-12-21T12:33:41Z</time>
      </trkpt>
      <trkpt lat="45.19913" lon="5.72434">
        <ele>535.8</ele>
        <time>2014-12-21T12:33:46Z</time>
      </trkpt>
      <trkpt lat="45.19894" lon="5.72446">
        <ele>534.9</ele>
        <time>2014-12-21T12:33:55Z</time>
      </trkpt>
      <trkpt lat="45.19889" lon="5.72474">
        <ele>533.3</ele>
        <time>2014-12-21T12:34:07Z</time>
      </trkpt>
      <trkpt lat="45.19868" lon="5.72484">
        <ele>536.3</ele>
        <time>2014-12-21T12:34:18Z</time>
      </trkpt>
      <trkpt lat="45.19865" lon="5.7252">
        <ele>536.4</ele>
        <time>2014-12-21T12:34:28Z</time>
      </trkpt>
      <trkpt lat="45.19864" lon="5.72542">
        <ele>535.9</ele>
        <time>2014-12-21T12:34:34Z</time>
      </trkpt>
      <trkpt lat="45.19856" lon="5.72514">
        <ele>531.2</ele>
        <time>2014-12-21T12:34:46Z</time>
      </trkpt>
      <trkpt lat="45.19853" lon="5.72484">
        <ele>529.7</ele>
        <time>2014-12-21T12:34:54Z</time>
      </trkpt>
      <trkpt lat="45.19851" lon="5.7246">
        <ele>527.4</ele>
        <time>2014-12-21T12:35:01Z</time>
      </trkpt>
      <trkpt lat="45.19842" lon="5.72455">
        <ele>524.3</ele>
        <time>2014-12-21T12:35:10Z</time>
      </trkpt>
      <trkpt lat="45.1983" lon="5.725">
        <ele>522</ele>
        <time>2014-12-21T12:35:24Z</time>
      </trkpt>
      <trkpt lat="45.19826" lon="5.72524">
        <ele>520.8</ele>
        <time>2014-12-21T12:35:30Z</time>
      </trkpt>
      <trkpt lat="45.19823" lon="5.72561">
        <ele>518.6</ele>
        <time>2014-12-21T12:35:39Z</time>
      </trkpt>
      <trkpt lat="45.19821" lon="5.72587">
        <ele>517.5</ele>
        <time>2014-12-21T12:35:46Z</time>
      </trkpt>
      <trkpt lat="45.19827" lon="5.72622">
        <ele>515.2</ele>
        <time>2014-12-21T12:35:55Z</time>
      </trkpt>
      <trkpt lat="45.19838" lon="5.72652">
        <ele>513.2</ele>
        <time>2014-12-21T12:36:04Z</time>
      </trkpt>
      <trkpt lat="45.19853" lon="5.72679">
        <ele>508.9</ele>
        <time>2014-12-21T12:36:14Z</time>
      </trkpt>
      <trkpt lat="45.19853" lon="5.72679">
        <ele>508.9</ele>
        <time>2014-12-21T12:36:22Z</time>
      </trkpt>
      <trkpt lat="45.19853" lon="5.72679">
        <ele>508.9</ele>
        <time>2014-12-21T12:36:23Z</time>
      </trkpt>
      <trkpt lat="45.19832" lon="5.72656">
        <ele>503.1</ele>
        <time>2014-12-21T12:36:29Z</time>
      </trkpt>
      <trkpt lat="45.19814" lon="5.72642">
        <ele>501.8</ele>
        <time>2014-12-21T12:36:37Z</time>
      </trkpt>
      <trkpt lat="45.19797" lon="5.72625">
        <ele>500.4</ele>
        <time>2014-12-21T12:36:45Z</time>
      </trkpt>
      <trkpt lat="45.19792" lon="5.72604">
        <ele>499.2</ele>
        <time>2014-12-21T12:36:51Z</time>
      </trkpt>
      <trkpt lat="45.19788" lon="5.72574">
        <ele>496.8</ele>
        <time>2014-12-21T12:36:59Z</time>
      </trkpt>
      <trkpt lat="45.19789" lon="5.72551">
        <ele>494.9</ele>
        <time>2014-12-21T12:37:06Z</time>
      </trkpt>
      <trkpt lat="45.19789" lon="5.72536">
        <ele>490.6</ele>
        <time>2014-12-21T12:37:12Z</time>
      </trkpt>
      <trkpt lat="45.19789" lon="5.72551">
        <ele>494.9</ele>
        <time>2014-12-21T12:37:19Z</time>
      </trkpt>
      <trkpt lat="45.19777" lon="5.72567">
        <ele>489</ele>
        <time>2014-12-21T12:37:23Z</time>
      </trkpt>
      <trkpt lat="45.19775" lon="5.72573">
        <ele>488.8</ele>
        <time>2014-12-21T12:37:25Z</time>
      </trkpt>
      <trkpt lat="45.19768" lon="5.72557">
        <ele>485.5</ele>
        <time>2014-12-21T12:37:35Z</time>
      </trkpt>
      <trkpt lat="45.1977" lon="5.72524">
        <ele>483.3</ele>
        <time>2014-12-21T12:37:45Z</time>
      </trkpt>
      <trkpt lat="45.19779" lon="5.72495">
        <ele>480.3</ele>
        <time>2014-12-21T12:37:53Z</time>
      </trkpt>
      <trkpt lat="45.19784" lon="5.72478">
        <ele>479</ele>
        <time>2014-12-21T12:37:58Z</time>
      </trkpt>
      <trkpt lat="45.19789" lon="5.72452">
        <ele>477.8</ele>
        <time>2014-12-21T12:38:06Z</time>
      </trkpt>
      <trkpt lat="45.19794" lon="5.72417">
        <ele>477.2</ele>
        <time>2014-12-21T12:38:16Z</time>
      </trkpt>
      <trkpt lat="45.19797" lon="5.72393">
        <ele>475.5</ele>
        <time>2014-12-21T12:38:23Z</time>
      </trkpt>
      <trkpt lat="45.19803" lon="5.72376">
        <ele>473.6</ele>
        <time>2014-12-21T12:38:28Z</time>
      </trkpt>
      <trkpt lat="45.19811" lon="5.72361">
        <ele>471.1</ele>
        <time>2014-12-21T12:38:34Z</time>
      </trkpt>
      <trkpt lat="45.19821" lon="5.72361">
        <ele>470.7</ele>
        <time>2014-12-21T12:38:45Z</time>
      </trkpt>
      <trkpt lat="45.19809" lon="5.72328">
        <ele>465.4</ele>
        <time>2014-12-21T12:39:02Z</time>
      </trkpt>
      <trkpt lat="45.19816" lon="5.72305">
        <ele>459.3</ele>
        <time>2014-12-21T12:39:08Z</time>
      </trkpt>
      <trkpt lat="45.19827" lon="5.72284">
        <ele>454.8</ele>
        <time>2014-12-21T12:39:14Z</time>
      </trkpt>
      <trkpt lat="45.19831" lon="5.72267">
        <ele>453.9</ele>
        <time>2014-12-21T12:39:19Z</time>
      </trkpt>
      <trkpt lat="45.19835" lon="5.72256">
        <ele>453.3</ele>
        <time>2014-12-21T12:39:23Z</time>
      </trkpt>
      <trkpt lat="45.19831" lon="5.72247">
        <ele>453.2</ele>
        <time>2014-12-21T12:39:34Z</time>
      </trkpt>
      <trkpt lat="45.19831" lon="5.72247">
        <ele>453.2</ele>
        <time>2014-12-21T12:39:42Z</time>
      </trkpt>
      <trkpt lat="45.19831" lon="5.72247">
        <ele>453.2</ele>
        <time>2014-12-21T12:39:43Z</time>
      </trkpt>
      <trkpt lat="45.19803" lon="5.72254">
        <ele>433</ele>
        <time>2014-12-21T12:40:39Z</time>
      </trkpt>
      <trkpt lat="45.19775" lon="5.72239">
        <ele>411.9</ele>
        <time>2014-12-21T12:42:15Z</time>
      </trkpt>
      <trkpt lat="45.1976" lon="5.7224">
        <ele>411.3</ele>
        <time>2014-12-21T12:42:24Z</time>
      </trkpt>
      <trkpt lat="45.19743" lon="5.72243">
        <ele>409.9</ele>
        <time>2014-12-21T12:42:32Z</time>
      </trkpt>
      <trkpt lat="45.19722" lon="5.72246">
        <ele>406.1</ele>
        <time>2014-12-21T12:42:40Z</time>
      </trkpt>
      <trkpt lat="45.19708" lon="5.72237">
        <ele>401.5</ele>
        <time>2014-12-21T12:42:51Z</time>
      </trkpt>
      <trkpt lat="45.19724" lon="5.72214">
        <ele>396.4</ele>
        <time>2014-12-21T12:43:02Z</time>
      </trkpt>
      <trkpt lat="45.19715" lon="5.72208">
        <ele>393.3</ele>
        <time>2014-12-21T12:43:11Z</time>
      </trkpt>
      <trkpt lat="45.19691" lon="5.72228">
        <ele>390.5</ele>
        <time>2014-12-21T12:43:21Z</time>
      </trkpt>
      <trkpt lat="45.19681" lon="5.72243">
        <ele>389.1</ele>
        <time>2014-12-21T12:43:29Z</time>
      </trkpt>
      <trkpt lat="45.1967" lon="5.72258">
        <ele>388.2</ele>
        <time>2014-12-21T12:43:36Z</time>
      </trkpt>
      <trkpt lat="45.19651" lon="5.72267">
        <ele>386.5</ele>
        <time>2014-12-21T12:43:48Z</time>
      </trkpt>
      <trkpt lat="45.19633" lon="5.72269">
        <ele>386.1</ele>
        <time>2014-12-21T12:43:56Z</time>
      </trkpt>
      <trkpt lat="45.19612" lon="5.72264">
        <ele>386</ele>
        <time>2014-12-21T12:44:04Z</time>
      </trkpt>
      <trkpt lat="45.19592" lon="5.72253">
        <ele>385.7</ele>
        <time>2014-12-21T12:44:13Z</time>
      </trkpt>
      <trkpt lat="45.19569" lon="5.72241">
        <ele>383.7</ele>
        <time>2014-12-21T12:44:22Z</time>
      </trkpt>
      <trkpt lat="45.19553" lon="5.72237">
        <ele>381</ele>
        <time>2014-12-21T12:44:30Z</time>
      </trkpt>
      <trkpt lat="45.19538" lon="5.72221">
        <ele>379.9</ele>
        <time>2014-12-21T12:44:43Z</time>
      </trkpt>
      <trkpt lat="45.1952" lon="5.72206">
        <ele>379.2</ele>
        <time>2014-12-21T12:44:52Z</time>
      </trkpt>
      <trkpt lat="45.19496" lon="5.72189">
        <ele>377.6</ele>
        <time>2014-12-21T12:45:01Z</time>
      </trkpt>
      <trkpt lat="45.19482" lon="5.72173">
        <ele>375.9</ele>
        <time>2014-12-21T12:45:09Z</time>
      </trkpt>
      <trkpt lat="45.19465" lon="5.72162">
        <ele>369.6</ele>
        <time>2014-12-21T12:45:16Z</time>
      </trkpt>
      <trkpt lat="45.19457" lon="5.72163">
        <ele>362.9</ele>
        <time>2014-12-21T12:45:27Z</time>
      </trkpt>
      <trkpt lat="45.19455" lon="5.72122">
        <ele>356.9</ele>
        <time>2014-12-21T12:45:57Z</time>
      </trkpt>
      <trkpt lat="45.19466" lon="5.72105">
        <ele>340.6</ele>
        <time>2014-12-21T12:46:04Z</time>
      </trkpt>
      <trkpt lat="45.19476" lon="5.72086">
        <ele>338.5</ele>
        <time>2014-12-21T12:46:11Z</time>
      </trkpt>
      <trkpt lat="45.19476" lon="5.7207">
        <ele>327.9</ele>
        <time>2014-12-21T12:46:19Z</time>
      </trkpt>
      <trkpt lat="45.19469" lon="5.72052">
        <ele>318.1</ele>
        <time>2014-12-21T12:46:30Z</time>
      </trkpt>
      <trkpt lat="45.19455" lon="5.72021">
        <ele>310</ele>
        <time>2014-12-21T12:46:45Z</time>
      </trkpt>
      <trkpt lat="45.19445" lon="5.72007">
        <ele>309.1</ele>
        <time>2014-12-21T12:46:52Z</time>
      </trkpt>
      <trkpt lat="45.19436" lon="5.71999">
        <ele>304.9</ele>
        <time>2014-12-21T12:46:57Z</time>
      </trkpt>
      <trkpt lat="45.19436" lon="5.71999">
        <ele>304.9</ele>
        <time>2014-12-21T12:47:02Z</time>
      </trkpt>
      <trkpt lat="45.19436" lon="5.71999">
        <ele>304.9</ele>
        <time>2014-12-21T12:47:03Z</time>
      </trkpt>
      <trkpt lat="45.19438" lon="5.72017">
        <ele>299.1</ele>
        <time>2014-12-21T12:47:12Z</time>
      </trkpt>
      <trkpt lat="45.19442" lon="5.72021">
        <ele>298.3</ele>
        <time>2014-12-21T12:47:19Z</time>
      </trkpt>
      <trkpt lat="45.19438" lon="5.72017">
        <ele>299.1</ele>
        <time>2014-12-21T12:47:27Z</time>
      </trkpt>
      <trkpt lat="45.1942" lon="5.7201">
        <ele>295.3</ele>
        <time>2014-12-21T12:47:41Z</time>
      </trkpt>
      <trkpt lat="45.19391" lon="5.72011">
        <ele>294.1</ele>
        <time>2014-12-21T12:47:53Z</time>
      </trkpt>
      <trkpt lat="45.19372" lon="5.72014">
        <ele>292.8</ele>
        <time>2014-12-21T12:48:00Z</time>
      </trkpt>
      <trkpt lat="45.19355" lon="5.72008">
        <ele>290.6</ele>
        <time>2014-12-21T12:48:07Z</time>
      </trkpt>
      <trkpt lat="45.19336" lon="5.71999">
        <ele>286.7</ele>
        <time>2014-12-21T12:48:15Z</time>
      </trkpt>
      <trkpt lat="45.19319" lon="5.72005">
        <ele>283.9</ele>
        <time>2014-12-21T12:48:21Z</time>
      </trkpt>
      <trkpt lat="45.19296" lon="5.72016">
        <ele>281.3</ele>
        <time>2014-12-21T12:48:29Z</time>
      </trkpt>
      <trkpt lat="45.19276" lon="5.72027">
        <ele>279.7</ele>
        <time>2014-12-21T12:48:36Z</time>
      </trkpt>
      <trkpt lat="45.19258" lon="5.7204">
        <ele>277.6</ele>
        <time>2014-12-21T12:48:43Z</time>
      </trkpt>
      <trkpt lat="45.19238" lon="5.72056">
        <ele>275.4</ele>
        <time>2014-12-21T12:48:51Z</time>
      </trkpt>
      <trkpt lat="45.19221" lon="5.72062">
        <ele>273.9</ele>
        <time>2014-12-21T12:48:59Z</time>
      </trkpt>
      <trkpt lat="45.19207" lon="5.72057">
        <ele>273.2</ele>
        <time>2014-12-21T12:49:05Z</time>
      </trkpt>
      <trkpt lat="45.19187" lon="5.72053">
        <ele>271.1</ele>
        <time>2014-12-21T12:49:15Z</time>
      </trkpt>
      <trkpt lat="45.19172" lon="5.72048">
        <ele>271.1</ele>
        <time>2014-12-21T12:49:21Z</time>
      </trkpt>
      <trkpt lat="45.1916" lon="5.72042">
        <ele>272</ele>
        <time>2014-12-21T12:49:27Z</time>
      </trkpt>
      <trkpt lat="45.19143" lon="5.72032">
        <ele>273.7</ele>
        <time>2014-12-21T12:49:36Z</time>
      </trkpt>
      <trkpt lat="45.19123" lon="5.72023">
        <ele>276.7</ele>
        <time>2014-12-21T12:49:47Z</time>
      </trkpt>
      <trkpt lat="45.191" lon="5.72013">
        <ele>278.6</ele>
        <time>2014-12-21T12:49:56Z</time>
      </trkpt>
      <trkpt lat="45.1908" lon="5.71999">
        <ele>282.4</ele>
        <time>2014-12-21T12:50:05Z</time>
      </trkpt>
      <trkpt lat="45.1906" lon="5.71987">
        <ele>287</ele>
        <time>2014-12-21T12:50:12Z</time>
      </trkpt>
      <trkpt lat="45.19042" lon="5.7198">
        <ele>290.6</ele>
        <time>2014-12-21T12:50:19Z</time>
      </trkpt>
      <trkpt lat="45.19021" lon="5.71974">
        <ele>293</ele>
        <time>2014-12-21T12:50:27Z</time>
      </trkpt>
      <trkpt lat="45.19006" lon="5.71965">
        <ele>295</ele>
        <time>2014-12-21T12:50:33Z</time>
      </trkpt>
      <trkpt lat="45.18992" lon="5.71953">
        <ele>296</ele>
        <time>2014-12-21T12:50:40Z</time>
      </trkpt>
      <trkpt lat="45.18974" lon="5.71948">
        <ele>296.7</ele>
        <time>2014-12-21T12:50:48Z</time>
      </trkpt>
      <trkpt lat="45.1896" lon="5.71948">
        <ele>301.8</ele>
        <time>2014-12-21T12:50:57Z</time>
      </trkpt>
      <trkpt lat="45.18937" lon="5.71938">
        <ele>305.8</ele>
        <time>2014-12-21T12:51:08Z</time>
      </trkpt>
      <trkpt lat="45.18918" lon="5.71931">
        <ele>307.4</ele>
        <time>2014-12-21T12:51:15Z</time>
      </trkpt>
      <trkpt lat="45.18895" lon="5.71922">
        <ele>308.8</ele>
        <time>2014-12-21T12:51:24Z</time>
      </trkpt>
      <trkpt lat="45.18878" lon="5.71916">
        <ele>310.8</ele>
        <time>2014-12-21T12:51:31Z</time>
      </trkpt>
      <trkpt lat="45.18861" lon="5.71908">
        <ele>311.8</ele>
        <time>2014-12-21T12:51:39Z</time>
      </trkpt>
      <trkpt lat="45.18844" lon="5.71902">
        <ele>313.7</ele>
        <time>2014-12-21T12:51:48Z</time>
      </trkpt>
      <trkpt lat="45.18822" lon="5.71897">
        <ele>314.2</ele>
        <time>2014-12-21T12:51:58Z</time>
      </trkpt>
      <trkpt lat="45.18802" lon="5.71894">
        <ele>314.8</ele>
        <time>2014-12-21T12:52:06Z</time>
      </trkpt>
      <trkpt lat="45.18788" lon="5.71888">
        <ele>315.4</ele>
        <time>2014-12-21T12:52:13Z</time>
      </trkpt>
      <trkpt lat="45.18767" lon="5.7188">
        <ele>315.8</ele>
        <time>2014-12-21T12:52:22Z</time>
      </trkpt>
      <trkpt lat="45.18752" lon="5.71878">
        <ele>315.9</ele>
        <time>2014-12-21T12:52:31Z</time>
      </trkpt>
      <trkpt lat="45.18717" lon="5.71865">
        <ele>314.2</ele>
        <time>2014-12-21T12:52:46Z</time>
      </trkpt>
      <trkpt lat="45.18696" lon="5.71859">
        <ele>314.3</ele>
        <time>2014-12-21T12:52:54Z</time>
      </trkpt>
      <trkpt lat="45.18666" lon="5.71845">
        <ele>312.8</ele>
        <time>2014-12-21T12:53:05Z</time>
      </trkpt>
      <trkpt lat="45.18643" lon="5.7184">
        <ele>312.4</ele>
        <time>2014-12-21T12:53:12Z</time>
      </trkpt>
      <trkpt lat="45.18626" lon="5.7183">
        <ele>312.3</ele>
        <time>2014-12-21T12:53:19Z</time>
      </trkpt>
      <trkpt lat="45.1861" lon="5.7182">
        <ele>315.8</ele>
        <time>2014-12-21T12:53:28Z</time>
      </trkpt>
      <trkpt lat="45.18589" lon="5.71816">
        <ele>315.8</ele>
        <time>2014-12-21T12:53:37Z</time>
      </trkpt>
      <trkpt lat="45.18568" lon="5.71809">
        <ele>316.4</ele>
        <time>2014-12-21T12:53:47Z</time>
      </trkpt>
      <trkpt lat="45.1855" lon="5.71812">
        <ele>317.5</ele>
        <time>2014-12-21T12:53:56Z</time>
      </trkpt>
      <trkpt lat="45.18523" lon="5.718">
        <ele>316.9</ele>
        <time>2014-12-21T12:54:08Z</time>
      </trkpt>
      <trkpt lat="45.18507" lon="5.71789">
        <ele>316.3</ele>
        <time>2014-12-21T12:54:15Z</time>
      </trkpt>
      <trkpt lat="45.18488" lon="5.71771">
        <ele>314.6</ele>
        <time>2014-12-21T12:54:22Z</time>
      </trkpt>
      <trkpt lat="45.18467" lon="5.71765">
        <ele>316</ele>
        <time>2014-12-21T12:54:29Z</time>
      </trkpt>
      <trkpt lat="45.18457" lon="5.71784">
        <ele>319.1</ele>
        <time>2014-12-21T12:54:35Z</time>
      </trkpt>
      <trkpt lat="45.18454" lon="5.71808">
        <ele>320.6</ele>
        <time>2014-12-21T12:54:41Z</time>
      </trkpt>
      <trkpt lat="45.18441" lon="5.71847">
        <ele>318.9</ele>
        <time>2014-12-21T12:54:50Z</time>
      </trkpt>
      <trkpt lat="45.1844" lon="5.71871">
        <ele>317.8</ele>
        <time>2014-12-21T12:54:58Z</time>
      </trkpt>
      <trkpt lat="45.1844" lon="5.71871">
        <ele>213</ele>
        <time>2014-12-21T12:55:06Z</time>
      </trkpt>
      <trkpt lat="45.1844" lon="5.71871">
        <ele>213</ele>
        <time>2014-12-21T12:55:07Z</time>
      </trkpt>
    </trkseg>
  </trk>
</gpx>